<?xml version="1.0" encoding="UTF-8" standalone="no" ?>
<gpx xmlns="http://www.topografix.com/GPX/1/1" xmlns:xsi="http://www.w3.org/2001/XMLSchema-instance" xsi:schemaLocation="http://www.topografix.com/GPX/1/1 http://www.topografix.com/GPX/1/1/gpx.xsd" version="1.1" creator="VisuGPX - https://www.visugpx.com">
  <metadata>
    <name>181_Circuit 59 km Les Herbiers_Les Herbiers édité par cth85.com</name>
    <desc><![CDATA[Circuit de 76 km passant par:
Les Herbiers
D11 Mesnard la Barotière
D11 Saint Fulgent
D37 Chauché
D7, les Essarts
D39 Sainte Cécile
D48 Mouchamps, rue du stade
Les Herbiers.]]></desc>
  </metadata>
  <trk>
    <name><![CDATA[59_181 _cth85.com]]></name>
    <extensions>
      <line xmlns="http://www.topografix.com/GPX/gpx_style/0/2">
        <color>0000FF</color>
        <width>4</width>
      </line>
    </extensions>
    <trkseg>
      <trkpt lat="46.86641" lon="-1.00636">
        <ele>111</ele>
        <time>2024-10-17T13:57:26.000Z</time>
      </trkpt>
      <trkpt lat="46.86641" lon="-1.00637">
        <ele>111</ele>
        <time>2024-10-17T13:57:26.116Z</time>
      </trkpt>
      <trkpt lat="46.86721" lon="-1.00665">
        <ele>110</ele>
        <time>2024-10-17T13:57:38.625Z</time>
      </trkpt>
      <trkpt lat="46.86766" lon="-1.00652">
        <ele>110</ele>
        <time>2024-10-17T13:57:46.420Z</time>
      </trkpt>
      <trkpt lat="46.86836" lon="-1.00634">
        <ele>111.2</ele>
        <time>2024-10-17T13:58:00.730Z</time>
      </trkpt>
      <trkpt lat="46.86853" lon="-1.00633">
        <ele>111.2</ele>
        <time>2024-10-17T13:58:03.622Z</time>
      </trkpt>
      <trkpt lat="46.86948" lon="-1.00668">
        <ele>108.6</ele>
        <time>2024-10-17T13:58:16.830Z</time>
      </trkpt>
      <trkpt lat="46.86977" lon="-1.00669">
        <ele>105.8</ele>
        <time>2024-10-17T13:58:19.788Z</time>
      </trkpt>
      <trkpt lat="46.87042" lon="-1.00732">
        <ele>102.8</ele>
        <time>2024-10-17T13:58:29.384Z</time>
      </trkpt>
      <trkpt lat="46.87045" lon="-1.00747">
        <ele>102.4</ele>
        <time>2024-10-17T13:58:30.709Z</time>
      </trkpt>
      <trkpt lat="46.87065" lon="-1.00757">
        <ele>102.3</ele>
        <time>2024-10-17T13:58:34.145Z</time>
      </trkpt>
      <trkpt lat="46.87095" lon="-1.00763">
        <ele>102.5</ele>
        <time>2024-10-17T13:58:39.632Z</time>
      </trkpt>
      <trkpt lat="46.87114" lon="-1.00778">
        <ele>103</ele>
        <time>2024-10-17T13:58:44.283Z</time>
      </trkpt>
      <trkpt lat="46.87189" lon="-1.00716">
        <ele>104.8</ele>
        <time>2024-10-17T13:59:02.391Z</time>
      </trkpt>
      <trkpt lat="46.87178" lon="-1.00791">
        <ele>106.2</ele>
        <time>2024-10-17T13:59:14.143Z</time>
      </trkpt>
      <trkpt lat="46.8718" lon="-1.0082">
        <ele>107.5</ele>
        <time>2024-10-17T13:59:21.359Z</time>
      </trkpt>
      <trkpt lat="46.87197" lon="-1.00885">
        <ele>108.3</ele>
        <time>2024-10-17T13:59:30.931Z</time>
      </trkpt>
      <trkpt lat="46.87226" lon="-1.00973">
        <ele>107.5</ele>
        <time>2024-10-17T13:59:41.103Z</time>
      </trkpt>
      <trkpt lat="46.8726" lon="-1.01108">
        <ele>106.8</ele>
        <time>2024-10-17T13:59:56.747Z</time>
      </trkpt>
      <trkpt lat="46.87289" lon="-1.01193">
        <ele>107.4</ele>
        <time>2024-10-17T14:00:08.829Z</time>
      </trkpt>
      <trkpt lat="46.87296" lon="-1.01212">
        <ele>107.2</ele>
        <time>2024-10-17T14:00:11.046Z</time>
      </trkpt>
      <trkpt lat="46.87287" lon="-1.01233">
        <ele>107.4</ele>
        <time>2024-10-17T14:00:14.281Z</time>
      </trkpt>
      <trkpt lat="46.87281" lon="-1.01258">
        <ele>108</ele>
        <time>2024-10-17T14:00:18.651Z</time>
      </trkpt>
      <trkpt lat="46.8728" lon="-1.01273">
        <ele>108.1</ele>
        <time>2024-10-17T14:00:20.577Z</time>
      </trkpt>
      <trkpt lat="46.87286" lon="-1.01273">
        <ele>108.2</ele>
        <time>2024-10-17T14:00:21.782Z</time>
      </trkpt>
      <trkpt lat="46.87297" lon="-1.01281">
        <ele>108.7</ele>
        <time>2024-10-17T14:00:25.026Z</time>
      </trkpt>
      <trkpt lat="46.87305" lon="-1.01295">
        <ele>109</ele>
        <time>2024-10-17T14:00:27.740Z</time>
      </trkpt>
      <trkpt lat="46.87324" lon="-1.01393">
        <ele>112.7</ele>
        <time>2024-10-17T14:00:49.230Z</time>
      </trkpt>
      <trkpt lat="46.87327" lon="-1.01398">
        <ele>112.8</ele>
        <time>2024-10-17T14:00:50.197Z</time>
      </trkpt>
      <trkpt lat="46.87325" lon="-1.01401">
        <ele>112.8</ele>
        <time>2024-10-17T14:00:50.684Z</time>
      </trkpt>
      <trkpt lat="46.87328" lon="-1.01409">
        <ele>112.9</ele>
        <time>2024-10-17T14:00:51.929Z</time>
      </trkpt>
      <trkpt lat="46.87342" lon="-1.01482">
        <ele>114.2</ele>
        <time>2024-10-17T14:01:03.336Z</time>
      </trkpt>
      <trkpt lat="46.87328" lon="-1.01492">
        <ele>114</ele>
        <time>2024-10-17T14:01:05.692Z</time>
      </trkpt>
      <trkpt lat="46.87283" lon="-1.0151">
        <ele>113.2</ele>
        <time>2024-10-17T14:01:12.487Z</time>
      </trkpt>
      <trkpt lat="46.87235" lon="-1.01524">
        <ele>111.5</ele>
        <time>2024-10-17T14:01:18.680Z</time>
      </trkpt>
      <trkpt lat="46.87195" lon="-1.01534">
        <ele>111</ele>
        <time>2024-10-17T14:01:24.842Z</time>
      </trkpt>
      <trkpt lat="46.87151" lon="-1.01536">
        <ele>108.7</ele>
        <time>2024-10-17T14:01:29.761Z</time>
      </trkpt>
      <trkpt lat="46.87106" lon="-1.01535">
        <ele>106.4</ele>
        <time>2024-10-17T14:01:34.829Z</time>
      </trkpt>
      <trkpt lat="46.87074" lon="-1.01709">
        <ele>108.7</ele>
        <time>2024-10-17T14:02:00.108Z</time>
      </trkpt>
      <trkpt lat="46.87028" lon="-1.01989">
        <ele>109</ele>
        <time>2024-10-17T14:02:34.055Z</time>
      </trkpt>
      <trkpt lat="46.87028" lon="-1.0199">
        <ele>109</ele>
        <time>2024-10-17T14:02:34.171Z</time>
      </trkpt>
      <trkpt lat="46.87013" lon="-1.02086">
        <ele>108.4</ele>
        <time>2024-10-17T14:02:44.708Z</time>
      </trkpt>
      <trkpt lat="46.87009" lon="-1.0212">
        <ele>107.9</ele>
        <time>2024-10-17T14:02:48.029Z</time>
      </trkpt>
      <trkpt lat="46.87006" lon="-1.02159">
        <ele>107.6</ele>
        <time>2024-10-17T14:02:52.144Z</time>
      </trkpt>
      <trkpt lat="46.87007" lon="-1.02236">
        <ele>106.4</ele>
        <time>2024-10-17T14:02:59.461Z</time>
      </trkpt>
      <trkpt lat="46.87017" lon="-1.02314">
        <ele>105.3</ele>
        <time>2024-10-17T14:03:07.158Z</time>
      </trkpt>
      <trkpt lat="46.87031" lon="-1.02398">
        <ele>102.9</ele>
        <time>2024-10-17T14:03:14.320Z</time>
      </trkpt>
      <trkpt lat="46.87057" lon="-1.02471">
        <ele>101.2</ele>
        <time>2024-10-17T14:03:21.692Z</time>
      </trkpt>
      <trkpt lat="46.87103" lon="-1.0259">
        <ele>98.8</ele>
        <time>2024-10-17T14:03:34.379Z</time>
      </trkpt>
      <trkpt lat="46.87116" lon="-1.02635">
        <ele>98.4</ele>
        <time>2024-10-17T14:03:39.466Z</time>
      </trkpt>
      <trkpt lat="46.87144" lon="-1.02688">
        <ele>98.2</ele>
        <time>2024-10-17T14:03:46.935Z</time>
      </trkpt>
      <trkpt lat="46.87152" lon="-1.02683">
        <ele>98.5</ele>
        <time>2024-10-17T14:03:49.068Z</time>
      </trkpt>
      <trkpt lat="46.8716" lon="-1.02683">
        <ele>98.8</ele>
        <time>2024-10-17T14:03:51.100Z</time>
      </trkpt>
      <trkpt lat="46.87169" lon="-1.02689">
        <ele>99</ele>
        <time>2024-10-17T14:03:53.164Z</time>
      </trkpt>
      <trkpt lat="46.87175" lon="-1.02698">
        <ele>98.9</ele>
        <time>2024-10-17T14:03:54.477Z</time>
      </trkpt>
      <trkpt lat="46.87178" lon="-1.0271">
        <ele>98.4</ele>
        <time>2024-10-17T14:03:55.421Z</time>
      </trkpt>
      <trkpt lat="46.87178" lon="-1.02722">
        <ele>98</ele>
        <time>2024-10-17T14:03:56.360Z</time>
      </trkpt>
      <trkpt lat="46.87175" lon="-1.02732">
        <ele>97.8</ele>
        <time>2024-10-17T14:03:57.365Z</time>
      </trkpt>
      <trkpt lat="46.87168" lon="-1.02742">
        <ele>97.3</ele>
        <time>2024-10-17T14:03:58.466Z</time>
      </trkpt>
      <trkpt lat="46.8716" lon="-1.02748">
        <ele>97.1</ele>
        <time>2024-10-17T14:03:59.721Z</time>
      </trkpt>
      <trkpt lat="46.87154" lon="-1.02748">
        <ele>97</ele>
        <time>2024-10-17T14:04:00.599Z</time>
      </trkpt>
      <trkpt lat="46.8715" lon="-1.02876">
        <ele>95.2</ele>
        <time>2024-10-17T14:04:12.999Z</time>
      </trkpt>
      <trkpt lat="46.8715" lon="-1.02917">
        <ele>95</ele>
        <time>2024-10-17T14:04:17.457Z</time>
      </trkpt>
      <trkpt lat="46.87156" lon="-1.02991">
        <ele>94.4</ele>
        <time>2024-10-17T14:04:25.229Z</time>
      </trkpt>
      <trkpt lat="46.87163" lon="-1.03076">
        <ele>93.8</ele>
        <time>2024-10-17T14:04:34.281Z</time>
      </trkpt>
      <trkpt lat="46.8718" lon="-1.03261">
        <ele>91</ele>
        <time>2024-10-17T14:04:52.139Z</time>
      </trkpt>
      <trkpt lat="46.87181" lon="-1.03298">
        <ele>90.6</ele>
        <time>2024-10-17T14:04:55.868Z</time>
      </trkpt>
      <trkpt lat="46.87176" lon="-1.03401">
        <ele>90.8</ele>
        <time>2024-10-17T14:05:08.195Z</time>
      </trkpt>
      <trkpt lat="46.87168" lon="-1.03442">
        <ele>91</ele>
        <time>2024-10-17T14:05:13.490Z</time>
      </trkpt>
      <trkpt lat="46.87126" lon="-1.03599">
        <ele>91</ele>
        <time>2024-10-17T14:05:33.077Z</time>
      </trkpt>
      <trkpt lat="46.87119" lon="-1.03635">
        <ele>90.1</ele>
        <time>2024-10-17T14:05:36.304Z</time>
      </trkpt>
      <trkpt lat="46.87117" lon="-1.03668">
        <ele>90</ele>
        <time>2024-10-17T14:05:39.997Z</time>
      </trkpt>
      <trkpt lat="46.87126" lon="-1.03779">
        <ele>90</ele>
        <time>2024-10-17T14:05:52.983Z</time>
      </trkpt>
      <trkpt lat="46.87135" lon="-1.03783">
        <ele>90.2</ele>
        <time>2024-10-17T14:05:54.968Z</time>
      </trkpt>
      <trkpt lat="46.8714" lon="-1.03789">
        <ele>90.4</ele>
        <time>2024-10-17T14:05:56.489Z</time>
      </trkpt>
      <trkpt lat="46.87142" lon="-1.03799">
        <ele>90.8</ele>
        <time>2024-10-17T14:05:58.775Z</time>
      </trkpt>
      <trkpt lat="46.8714" lon="-1.0381">
        <ele>91</ele>
        <time>2024-10-17T14:06:00.499Z</time>
      </trkpt>
      <trkpt lat="46.87136" lon="-1.03817">
        <ele>91</ele>
        <time>2024-10-17T14:06:01.559Z</time>
      </trkpt>
      <trkpt lat="46.87161" lon="-1.03861">
        <ele>91</ele>
        <time>2024-10-17T14:06:08.206Z</time>
      </trkpt>
      <trkpt lat="46.87172" lon="-1.0389">
        <ele>91.8</ele>
        <time>2024-10-17T14:06:13.816Z</time>
      </trkpt>
      <trkpt lat="46.87181" lon="-1.03921">
        <ele>91.6</ele>
        <time>2024-10-17T14:06:17.427Z</time>
      </trkpt>
      <trkpt lat="46.87201" lon="-1.04009">
        <ele>93.2</ele>
        <time>2024-10-17T14:06:31.405Z</time>
      </trkpt>
      <trkpt lat="46.87207" lon="-1.04041">
        <ele>93.6</ele>
        <time>2024-10-17T14:06:36.008Z</time>
      </trkpt>
      <trkpt lat="46.87213" lon="-1.04106">
        <ele>92.8</ele>
        <time>2024-10-17T14:06:42.501Z</time>
      </trkpt>
      <trkpt lat="46.87221" lon="-1.04151">
        <ele>92.1</ele>
        <time>2024-10-17T14:06:46.946Z</time>
      </trkpt>
      <trkpt lat="46.87239" lon="-1.04208">
        <ele>90.4</ele>
        <time>2024-10-17T14:06:52.185Z</time>
      </trkpt>
      <trkpt lat="46.87276" lon="-1.04301">
        <ele>88.8</ele>
        <time>2024-10-17T14:07:02.495Z</time>
      </trkpt>
      <trkpt lat="46.87468" lon="-1.04757">
        <ele>91.1</ele>
        <time>2024-10-17T14:08:08.623Z</time>
      </trkpt>
      <trkpt lat="46.87549" lon="-1.04943">
        <ele>88.1</ele>
        <time>2024-10-17T14:08:30.079Z</time>
      </trkpt>
      <trkpt lat="46.876" lon="-1.05072">
        <ele>87.4</ele>
        <time>2024-10-17T14:08:46.319Z</time>
      </trkpt>
      <trkpt lat="46.8763" lon="-1.05157">
        <ele>86.9</ele>
        <time>2024-10-17T14:08:56.671Z</time>
      </trkpt>
      <trkpt lat="46.87667" lon="-1.05349">
        <ele>88.5</ele>
        <time>2024-10-17T14:09:22.692Z</time>
      </trkpt>
      <trkpt lat="46.87674" lon="-1.05432">
        <ele>88.3</ele>
        <time>2024-10-17T14:09:32.092Z</time>
      </trkpt>
      <trkpt lat="46.87662" lon="-1.05516">
        <ele>87.5</ele>
        <time>2024-10-17T14:09:40.898Z</time>
      </trkpt>
      <trkpt lat="46.87633" lon="-1.05667">
        <ele>86</ele>
        <time>2024-10-17T14:09:56.944Z</time>
      </trkpt>
      <trkpt lat="46.87514" lon="-1.0634">
        <ele>85.1</ele>
        <time>2024-10-17T14:11:16.265Z</time>
      </trkpt>
      <trkpt lat="46.87491" lon="-1.06552">
        <ele>87</ele>
        <time>2024-10-17T14:11:44.618Z</time>
      </trkpt>
      <trkpt lat="46.87491" lon="-1.0658">
        <ele>87</ele>
        <time>2024-10-17T14:11:47.871Z</time>
      </trkpt>
      <trkpt lat="46.87495" lon="-1.06621">
        <ele>86.8</ele>
        <time>2024-10-17T14:11:52.376Z</time>
      </trkpt>
      <trkpt lat="46.87501" lon="-1.06665">
        <ele>86.9</ele>
        <time>2024-10-17T14:11:57.754Z</time>
      </trkpt>
      <trkpt lat="46.87534" lon="-1.0688">
        <ele>86.3</ele>
        <time>2024-10-17T14:12:22.413Z</time>
      </trkpt>
      <trkpt lat="46.87557" lon="-1.07189">
        <ele>84.9</ele>
        <time>2024-10-17T14:12:56.373Z</time>
      </trkpt>
      <trkpt lat="46.87563" lon="-1.07296">
        <ele>82</ele>
        <time>2024-10-17T14:13:05.336Z</time>
      </trkpt>
      <trkpt lat="46.87541" lon="-1.07488">
        <ele>83.1</ele>
        <time>2024-10-17T14:13:29.853Z</time>
      </trkpt>
      <trkpt lat="46.87526" lon="-1.07604">
        <ele>84.1</ele>
        <time>2024-10-17T14:13:45.357Z</time>
      </trkpt>
      <trkpt lat="46.87517" lon="-1.07641">
        <ele>84.4</ele>
        <time>2024-10-17T14:13:50.451Z</time>
      </trkpt>
      <trkpt lat="46.87254" lon="-1.08451">
        <ele>96.7</ele>
        <time>2024-10-17T14:15:58.148Z</time>
      </trkpt>
      <trkpt lat="46.87237" lon="-1.08497">
        <ele>96</ele>
        <time>2024-10-17T14:16:03.250Z</time>
      </trkpt>
      <trkpt lat="46.87213" lon="-1.08541">
        <ele>96</ele>
        <time>2024-10-17T14:16:09.789Z</time>
      </trkpt>
      <trkpt lat="46.87185" lon="-1.08577">
        <ele>96</ele>
        <time>2024-10-17T14:16:16.124Z</time>
      </trkpt>
      <trkpt lat="46.86444" lon="-1.09217">
        <ele>89.8</ele>
        <time>2024-10-17T14:18:32.898Z</time>
      </trkpt>
      <trkpt lat="46.8636" lon="-1.09293">
        <ele>84.9</ele>
        <time>2024-10-17T14:18:44.134Z</time>
      </trkpt>
      <trkpt lat="46.86342" lon="-1.09316">
        <ele>83.9</ele>
        <time>2024-10-17T14:18:47.004Z</time>
      </trkpt>
      <trkpt lat="46.86239" lon="-1.09523">
        <ele>80.2</ele>
        <time>2024-10-17T14:19:11.663Z</time>
      </trkpt>
      <trkpt lat="46.86184" lon="-1.09641">
        <ele>77.6</ele>
        <time>2024-10-17T14:19:24.819Z</time>
      </trkpt>
      <trkpt lat="46.86179" lon="-1.09676">
        <ele>77.2</ele>
        <time>2024-10-17T14:19:28.404Z</time>
      </trkpt>
      <trkpt lat="46.86173" lon="-1.09777">
        <ele>80.7</ele>
        <time>2024-10-17T14:19:49.083Z</time>
      </trkpt>
      <trkpt lat="46.86169" lon="-1.09801">
        <ele>81.8</ele>
        <time>2024-10-17T14:19:55.190Z</time>
      </trkpt>
      <trkpt lat="46.86161" lon="-1.0982">
        <ele>83.1</ele>
        <time>2024-10-17T14:20:02.434Z</time>
      </trkpt>
      <trkpt lat="46.86088" lon="-1.09889">
        <ele>87.2</ele>
        <time>2024-10-17T14:20:27.295Z</time>
      </trkpt>
      <trkpt lat="46.8605" lon="-1.09939">
        <ele>88.2</ele>
        <time>2024-10-17T14:20:37.886Z</time>
      </trkpt>
      <trkpt lat="46.86075" lon="-1.0999">
        <ele>87.9</ele>
        <time>2024-10-17T14:20:44.719Z</time>
      </trkpt>
      <trkpt lat="46.86087" lon="-1.10009">
        <ele>87</ele>
        <time>2024-10-17T14:20:46.713Z</time>
      </trkpt>
      <trkpt lat="46.86118" lon="-1.10041">
        <ele>86.8</ele>
        <time>2024-10-17T14:20:52.852Z</time>
      </trkpt>
      <trkpt lat="46.86133" lon="-1.10052">
        <ele>86.2</ele>
        <time>2024-10-17T14:20:54.959Z</time>
      </trkpt>
      <trkpt lat="46.86133" lon="-1.10051">
        <ele>86.2</ele>
        <time>2024-10-17T14:20:55.075Z</time>
      </trkpt>
      <trkpt lat="46.86136" lon="-1.10054">
        <ele>86.1</ele>
        <time>2024-10-17T14:20:55.561Z</time>
      </trkpt>
      <trkpt lat="46.86155" lon="-1.10089">
        <ele>86.5</ele>
        <time>2024-10-17T14:21:01.474Z</time>
      </trkpt>
      <trkpt lat="46.86173" lon="-1.10151">
        <ele>88.1</ele>
        <time>2024-10-17T14:21:12.797Z</time>
      </trkpt>
      <trkpt lat="46.86239" lon="-1.10325">
        <ele>91.7</ele>
        <time>2024-10-17T14:21:43.207Z</time>
      </trkpt>
      <trkpt lat="46.86314" lon="-1.10535">
        <ele>95</ele>
        <time>2024-10-17T14:22:17.064Z</time>
      </trkpt>
      <trkpt lat="46.86338" lon="-1.10605">
        <ele>94.8</ele>
        <time>2024-10-17T14:22:25.849Z</time>
      </trkpt>
      <trkpt lat="46.86355" lon="-1.10662">
        <ele>95.2</ele>
        <time>2024-10-17T14:22:33.773Z</time>
      </trkpt>
      <trkpt lat="46.86362" lon="-1.10692">
        <ele>95.9</ele>
        <time>2024-10-17T14:22:38.951Z</time>
      </trkpt>
      <trkpt lat="46.86379" lon="-1.10787">
        <ele>95.9</ele>
        <time>2024-10-17T14:22:50.362Z</time>
      </trkpt>
      <trkpt lat="46.86394" lon="-1.10858">
        <ele>96.7</ele>
        <time>2024-10-17T14:23:00.470Z</time>
      </trkpt>
      <trkpt lat="46.86428" lon="-1.11074">
        <ele>97</ele>
        <time>2024-10-17T14:23:26.716Z</time>
      </trkpt>
      <trkpt lat="46.86449" lon="-1.11195">
        <ele>96</ele>
        <time>2024-10-17T14:23:39.747Z</time>
      </trkpt>
      <trkpt lat="46.86619" lon="-1.11812">
        <ele>85.9</ele>
        <time>2024-10-17T14:24:43.255Z</time>
      </trkpt>
      <trkpt lat="46.86626" lon="-1.11848">
        <ele>87</ele>
        <time>2024-10-17T14:24:50.203Z</time>
      </trkpt>
      <trkpt lat="46.86628" lon="-1.11883">
        <ele>88.7</ele>
        <time>2024-10-17T14:24:59.577Z</time>
      </trkpt>
      <trkpt lat="46.86613" lon="-1.1194">
        <ele>90.8</ele>
        <time>2024-10-17T14:25:12.002Z</time>
      </trkpt>
      <trkpt lat="46.86595" lon="-1.12003">
        <ele>92</ele>
        <time>2024-10-17T14:25:22.349Z</time>
      </trkpt>
      <trkpt lat="46.86569" lon="-1.1208">
        <ele>93.4</ele>
        <time>2024-10-17T14:25:35.095Z</time>
      </trkpt>
      <trkpt lat="46.86527" lon="-1.12226">
        <ele>95</ele>
        <time>2024-10-17T14:25:56.422Z</time>
      </trkpt>
      <trkpt lat="46.86502" lon="-1.12326">
        <ele>96.1</ele>
        <time>2024-10-17T14:26:10.808Z</time>
      </trkpt>
      <trkpt lat="46.86428" lon="-1.12795">
        <ele>100</ele>
        <time>2024-10-17T14:27:13.682Z</time>
      </trkpt>
      <trkpt lat="46.86413" lon="-1.12869">
        <ele>100</ele>
        <time>2024-10-17T14:27:22.651Z</time>
      </trkpt>
      <trkpt lat="46.86344" lon="-1.13112">
        <ele>103</ele>
        <time>2024-10-17T14:27:58.794Z</time>
      </trkpt>
      <trkpt lat="46.8632" lon="-1.13179">
        <ele>104</ele>
        <time>2024-10-17T14:28:09.483Z</time>
      </trkpt>
      <trkpt lat="46.85989" lon="-1.13834">
        <ele>104</ele>
        <time>2024-10-17T14:29:44.123Z</time>
      </trkpt>
      <trkpt lat="46.85967" lon="-1.13869">
        <ele>105</ele>
        <time>2024-10-17T14:29:51.753Z</time>
      </trkpt>
      <trkpt lat="46.85949" lon="-1.13893">
        <ele>105</ele>
        <time>2024-10-17T14:29:55.892Z</time>
      </trkpt>
      <trkpt lat="46.85929" lon="-1.13914">
        <ele>105</ele>
        <time>2024-10-17T14:30:00.077Z</time>
      </trkpt>
      <trkpt lat="46.85902" lon="-1.13939">
        <ele>105.4</ele>
        <time>2024-10-17T14:30:06.224Z</time>
      </trkpt>
      <trkpt lat="46.85881" lon="-1.13954">
        <ele>105.1</ele>
        <time>2024-10-17T14:30:09.757Z</time>
      </trkpt>
      <trkpt lat="46.85815" lon="-1.13993">
        <ele>104.9</ele>
        <time>2024-10-17T14:30:21.538Z</time>
      </trkpt>
      <trkpt lat="46.85772" lon="-1.14026">
        <ele>106</ele>
        <time>2024-10-17T14:30:31.943Z</time>
      </trkpt>
      <trkpt lat="46.85754" lon="-1.14048">
        <ele>106.2</ele>
        <time>2024-10-17T14:30:36.276Z</time>
      </trkpt>
      <trkpt lat="46.85736" lon="-1.14073">
        <ele>105.5</ele>
        <time>2024-10-17T14:30:39.579Z</time>
      </trkpt>
      <trkpt lat="46.85714" lon="-1.14113">
        <ele>106.6</ele>
        <time>2024-10-17T14:30:47.873Z</time>
      </trkpt>
      <trkpt lat="46.85699" lon="-1.14153">
        <ele>107.1</ele>
        <time>2024-10-17T14:30:54.098Z</time>
      </trkpt>
      <trkpt lat="46.85691" lon="-1.14182">
        <ele>107.4</ele>
        <time>2024-10-17T14:30:58.276Z</time>
      </trkpt>
      <trkpt lat="46.85684" lon="-1.14212">
        <ele>106.4</ele>
        <time>2024-10-17T14:31:00.801Z</time>
      </trkpt>
      <trkpt lat="46.85678" lon="-1.14253">
        <ele>104.7</ele>
        <time>2024-10-17T14:31:03.862Z</time>
      </trkpt>
      <trkpt lat="46.85629" lon="-1.14667">
        <ele>98</ele>
        <time>2024-10-17T14:31:43.618Z</time>
      </trkpt>
      <trkpt lat="46.85622" lon="-1.14712">
        <ele>97.6</ele>
        <time>2024-10-17T14:31:48.395Z</time>
      </trkpt>
      <trkpt lat="46.85566" lon="-1.14978">
        <ele>96</ele>
        <time>2024-10-17T14:32:18.318Z</time>
      </trkpt>
      <trkpt lat="46.85474" lon="-1.15396">
        <ele>94</ele>
        <time>2024-10-17T14:33:06.283Z</time>
      </trkpt>
      <trkpt lat="46.85239" lon="-1.16438">
        <ele>92.8</ele>
        <time>2024-10-17T14:35:11.880Z</time>
      </trkpt>
      <trkpt lat="46.85226" lon="-1.16509">
        <ele>92.8</ele>
        <time>2024-10-17T14:35:20.422Z</time>
      </trkpt>
      <trkpt lat="46.85196" lon="-1.16629">
        <ele>89.7</ele>
        <time>2024-10-17T14:35:31.416Z</time>
      </trkpt>
      <trkpt lat="46.85183" lon="-1.16664">
        <ele>89.1</ele>
        <time>2024-10-17T14:35:35.225Z</time>
      </trkpt>
      <trkpt lat="46.85192" lon="-1.16671">
        <ele>89</ele>
        <time>2024-10-17T14:35:36.808Z</time>
      </trkpt>
      <trkpt lat="46.85195" lon="-1.16676">
        <ele>89</ele>
        <time>2024-10-17T14:35:37.581Z</time>
      </trkpt>
      <trkpt lat="46.85196" lon="-1.16691">
        <ele>89</ele>
        <time>2024-10-17T14:35:39.333Z</time>
      </trkpt>
      <trkpt lat="46.85194" lon="-1.16695">
        <ele>89</ele>
        <time>2024-10-17T14:35:39.908Z</time>
      </trkpt>
      <trkpt lat="46.85188" lon="-1.16704">
        <ele>88.9</ele>
        <time>2024-10-17T14:35:41.222Z</time>
      </trkpt>
      <trkpt lat="46.85184" lon="-1.16706">
        <ele>88.8</ele>
        <time>2024-10-17T14:35:41.805Z</time>
      </trkpt>
      <trkpt lat="46.85175" lon="-1.16703">
        <ele>88.8</ele>
        <time>2024-10-17T14:35:43.374Z</time>
      </trkpt>
      <trkpt lat="46.85172" lon="-1.16735">
        <ele>88.1</ele>
        <time>2024-10-17T14:35:46.234Z</time>
      </trkpt>
      <trkpt lat="46.85168" lon="-1.16748">
        <ele>88</ele>
        <time>2024-10-17T14:35:47.742Z</time>
      </trkpt>
      <trkpt lat="46.85151" lon="-1.16794">
        <ele>86.4</ele>
        <time>2024-10-17T14:35:51.948Z</time>
      </trkpt>
      <trkpt lat="46.85124" lon="-1.1686">
        <ele>85</ele>
        <time>2024-10-17T14:35:59.035Z</time>
      </trkpt>
      <trkpt lat="46.85123" lon="-1.1686">
        <ele>85</ele>
        <time>2024-10-17T14:35:59.205Z</time>
      </trkpt>
      <trkpt lat="46.85082" lon="-1.16954">
        <ele>82.7</ele>
        <time>2024-10-17T14:36:09.196Z</time>
      </trkpt>
      <trkpt lat="46.85066" lon="-1.16996">
        <ele>82.1</ele>
        <time>2024-10-17T14:36:13.941Z</time>
      </trkpt>
      <trkpt lat="46.85055" lon="-1.1703">
        <ele>80.9</ele>
        <time>2024-10-17T14:36:16.927Z</time>
      </trkpt>
      <trkpt lat="46.85016" lon="-1.17179">
        <ele>78.1</ele>
        <time>2024-10-17T14:36:31.742Z</time>
      </trkpt>
      <trkpt lat="46.85004" lon="-1.17239">
        <ele>76.1</ele>
        <time>2024-10-17T14:36:36.700Z</time>
      </trkpt>
      <trkpt lat="46.84997" lon="-1.17295">
        <ele>75.1</ele>
        <time>2024-10-17T14:36:41.985Z</time>
      </trkpt>
      <trkpt lat="46.84999" lon="-1.173">
        <ele>75</ele>
        <time>2024-10-17T14:36:42.525Z</time>
      </trkpt>
      <trkpt lat="46.84998" lon="-1.17305">
        <ele>75.1</ele>
        <time>2024-10-17T14:36:43.336Z</time>
      </trkpt>
      <trkpt lat="46.85023" lon="-1.17376">
        <ele>74.6</ele>
        <time>2024-10-17T14:36:51.865Z</time>
      </trkpt>
      <trkpt lat="46.8503" lon="-1.17407">
        <ele>74</ele>
        <time>2024-10-17T14:36:54.868Z</time>
      </trkpt>
      <trkpt lat="46.85033" lon="-1.1745">
        <ele>74</ele>
        <time>2024-10-17T14:36:59.891Z</time>
      </trkpt>
      <trkpt lat="46.85029" lon="-1.1748">
        <ele>74.1</ele>
        <time>2024-10-17T14:37:03.611Z</time>
      </trkpt>
      <trkpt lat="46.85036" lon="-1.17525">
        <ele>75.2</ele>
        <time>2024-10-17T14:37:11.381Z</time>
      </trkpt>
      <trkpt lat="46.85055" lon="-1.17603">
        <ele>75</ele>
        <time>2024-10-17T14:37:20.690Z</time>
      </trkpt>
      <trkpt lat="46.85059" lon="-1.17612">
        <ele>75.1</ele>
        <time>2024-10-17T14:37:22.118Z</time>
      </trkpt>
      <trkpt lat="46.85032" lon="-1.1762">
        <ele>74.2</ele>
        <time>2024-10-17T14:37:25.659Z</time>
      </trkpt>
      <trkpt lat="46.85019" lon="-1.17617">
        <ele>73.4</ele>
        <time>2024-10-17T14:37:27.051Z</time>
      </trkpt>
      <trkpt lat="46.85007" lon="-1.17676">
        <ele>72.5</ele>
        <time>2024-10-17T14:37:32.969Z</time>
      </trkpt>
      <trkpt lat="46.85007" lon="-1.17698">
        <ele>72.5</ele>
        <time>2024-10-17T14:37:35.526Z</time>
      </trkpt>
      <trkpt lat="46.8501" lon="-1.17735">
        <ele>73</ele>
        <time>2024-10-17T14:37:40.809Z</time>
      </trkpt>
      <trkpt lat="46.85009" lon="-1.17745">
        <ele>73.2</ele>
        <time>2024-10-17T14:37:42.398Z</time>
      </trkpt>
      <trkpt lat="46.85006" lon="-1.17758">
        <ele>73.2</ele>
        <time>2024-10-17T14:37:43.992Z</time>
      </trkpt>
      <trkpt lat="46.84971" lon="-1.17862">
        <ele>75</ele>
        <time>2024-10-17T14:38:00.988Z</time>
      </trkpt>
      <trkpt lat="46.84964" lon="-1.17886">
        <ele>75.6</ele>
        <time>2024-10-17T14:38:05.317Z</time>
      </trkpt>
      <trkpt lat="46.84954" lon="-1.17928">
        <ele>76</ele>
        <time>2024-10-17T14:38:11.207Z</time>
      </trkpt>
      <trkpt lat="46.84959" lon="-1.17933">
        <ele>76</ele>
        <time>2024-10-17T14:38:12.236Z</time>
      </trkpt>
      <trkpt lat="46.8496" lon="-1.17943">
        <ele>76</ele>
        <time>2024-10-17T14:38:13.411Z</time>
      </trkpt>
      <trkpt lat="46.84957" lon="-1.17948">
        <ele>76</ele>
        <time>2024-10-17T14:38:14.184Z</time>
      </trkpt>
      <trkpt lat="46.8497" lon="-1.17986">
        <ele>76</ele>
        <time>2024-10-17T14:38:19.122Z</time>
      </trkpt>
      <trkpt lat="46.85028" lon="-1.18424">
        <ele>73.7</ele>
        <time>2024-10-17T14:39:07.471Z</time>
      </trkpt>
      <trkpt lat="46.85055" lon="-1.18613">
        <ele>75.1</ele>
        <time>2024-10-17T14:39:32.379Z</time>
      </trkpt>
      <trkpt lat="46.85061" lon="-1.18628">
        <ele>75.8</ele>
        <time>2024-10-17T14:39:36.333Z</time>
      </trkpt>
      <trkpt lat="46.8506" lon="-1.18644">
        <ele>76.2</ele>
        <time>2024-10-17T14:39:39.089Z</time>
      </trkpt>
      <trkpt lat="46.85061" lon="-1.18667">
        <ele>76.2</ele>
        <time>2024-10-17T14:39:41.767Z</time>
      </trkpt>
      <trkpt lat="46.85082" lon="-1.1882">
        <ele>76.5</ele>
        <time>2024-10-17T14:40:00.399Z</time>
      </trkpt>
      <trkpt lat="46.85093" lon="-1.18913">
        <ele>75</ele>
        <time>2024-10-17T14:40:09.337Z</time>
      </trkpt>
      <trkpt lat="46.85091" lon="-1.18952">
        <ele>74</ele>
        <time>2024-10-17T14:40:12.655Z</time>
      </trkpt>
      <trkpt lat="46.85087" lon="-1.18972">
        <ele>73.1</ele>
        <time>2024-10-17T14:40:14.139Z</time>
      </trkpt>
      <trkpt lat="46.85042" lon="-1.19123">
        <ele>70.7</ele>
        <time>2024-10-17T14:40:29.986Z</time>
      </trkpt>
      <trkpt lat="46.85015" lon="-1.19207">
        <ele>71.6</ele>
        <time>2024-10-17T14:40:42.409Z</time>
      </trkpt>
      <trkpt lat="46.85011" lon="-1.19246">
        <ele>72.8</ele>
        <time>2024-10-17T14:40:49.870Z</time>
      </trkpt>
      <trkpt lat="46.85014" lon="-1.19258">
        <ele>72.7</ele>
        <time>2024-10-17T14:40:51.207Z</time>
      </trkpt>
      <trkpt lat="46.85013" lon="-1.19266">
        <ele>72.4</ele>
        <time>2024-10-17T14:40:51.821Z</time>
      </trkpt>
      <trkpt lat="46.8501" lon="-1.19274">
        <ele>72.1</ele>
        <time>2024-10-17T14:40:52.539Z</time>
      </trkpt>
      <trkpt lat="46.85006" lon="-1.19279">
        <ele>72</ele>
        <time>2024-10-17T14:40:53.293Z</time>
      </trkpt>
      <trkpt lat="46.85" lon="-1.19281">
        <ele>71.9</ele>
        <time>2024-10-17T14:40:54.196Z</time>
      </trkpt>
      <trkpt lat="46.84991" lon="-1.19301">
        <ele>70.1</ele>
        <time>2024-10-17T14:40:55.866Z</time>
      </trkpt>
      <trkpt lat="46.84985" lon="-1.19321">
        <ele>68.8</ele>
        <time>2024-10-17T14:40:57.389Z</time>
      </trkpt>
      <trkpt lat="46.84981" lon="-1.19365">
        <ele>67</ele>
        <time>2024-10-17T14:41:00.629Z</time>
      </trkpt>
      <trkpt lat="46.84994" lon="-1.19414">
        <ele>65.4</ele>
        <time>2024-10-17T14:41:04.865Z</time>
      </trkpt>
      <trkpt lat="46.8505" lon="-1.19588">
        <ele>58.8</ele>
        <time>2024-10-17T14:41:19.767Z</time>
      </trkpt>
      <trkpt lat="46.85056" lon="-1.19616">
        <ele>58.8</ele>
        <time>2024-10-17T14:41:23.177Z</time>
      </trkpt>
      <trkpt lat="46.8506" lon="-1.19643">
        <ele>57.7</ele>
        <time>2024-10-17T14:41:25.208Z</time>
      </trkpt>
      <trkpt lat="46.85058" lon="-1.19668">
        <ele>57.8</ele>
        <time>2024-10-17T14:41:28.302Z</time>
      </trkpt>
      <trkpt lat="46.85054" lon="-1.19685">
        <ele>57.9</ele>
        <time>2024-10-17T14:41:30.564Z</time>
      </trkpt>
      <trkpt lat="46.84997" lon="-1.19848">
        <ele>60.3</ele>
        <time>2024-10-17T14:41:56.396Z</time>
      </trkpt>
      <trkpt lat="46.84983" lon="-1.1987">
        <ele>60</ele>
        <time>2024-10-17T14:41:59.455Z</time>
      </trkpt>
      <trkpt lat="46.84867" lon="-1.19973">
        <ele>61.3</ele>
        <time>2024-10-17T14:42:24.790Z</time>
      </trkpt>
      <trkpt lat="46.8467" lon="-1.20219">
        <ele>62.8</ele>
        <time>2024-10-17T14:43:11.357Z</time>
      </trkpt>
      <trkpt lat="46.84658" lon="-1.20238">
        <ele>63.2</ele>
        <time>2024-10-17T14:43:15.145Z</time>
      </trkpt>
      <trkpt lat="46.8465" lon="-1.20255">
        <ele>63.7</ele>
        <time>2024-10-17T14:43:18.643Z</time>
      </trkpt>
      <trkpt lat="46.84642" lon="-1.20275">
        <ele>64.7</ele>
        <time>2024-10-17T14:43:24.219Z</time>
      </trkpt>
      <trkpt lat="46.84632" lon="-1.20324">
        <ele>65.7</ele>
        <time>2024-10-17T14:43:32.227Z</time>
      </trkpt>
      <trkpt lat="46.84547" lon="-1.20804">
        <ele>76.3</ele>
        <time>2024-10-17T14:44:52.281Z</time>
      </trkpt>
      <trkpt lat="46.84469" lon="-1.21235">
        <ele>74.9</ele>
        <time>2024-10-17T14:45:41.921Z</time>
      </trkpt>
      <trkpt lat="46.84458" lon="-1.21279">
        <ele>73.5</ele>
        <time>2024-10-17T14:45:45.718Z</time>
      </trkpt>
      <trkpt lat="46.84451" lon="-1.21303">
        <ele>73.9</ele>
        <time>2024-10-17T14:45:49.532Z</time>
      </trkpt>
      <trkpt lat="46.84431" lon="-1.21349">
        <ele>73.5</ele>
        <time>2024-10-17T14:45:55.273Z</time>
      </trkpt>
      <trkpt lat="46.84213" lon="-1.21781">
        <ele>79.3</ele>
        <time>2024-10-17T14:47:08.363Z</time>
      </trkpt>
      <trkpt lat="46.842" lon="-1.21813">
        <ele>79.9</ele>
        <time>2024-10-17T14:47:13.872Z</time>
      </trkpt>
      <trkpt lat="46.84184" lon="-1.21867">
        <ele>80</ele>
        <time>2024-10-17T14:47:20.878Z</time>
      </trkpt>
      <trkpt lat="46.84178" lon="-1.21893">
        <ele>80</ele>
        <time>2024-10-17T14:47:24.068Z</time>
      </trkpt>
      <trkpt lat="46.84171" lon="-1.21953">
        <ele>80.8</ele>
        <time>2024-10-17T14:47:32.661Z</time>
      </trkpt>
      <trkpt lat="46.84157" lon="-1.22288">
        <ele>78</ele>
        <time>2024-10-17T14:48:07.560Z</time>
      </trkpt>
      <trkpt lat="46.84156" lon="-1.22333">
        <ele>78.4</ele>
        <time>2024-10-17T14:48:13.513Z</time>
      </trkpt>
      <trkpt lat="46.84158" lon="-1.22383">
        <ele>78.9</ele>
        <time>2024-10-17T14:48:20.247Z</time>
      </trkpt>
      <trkpt lat="46.84172" lon="-1.22542">
        <ele>77.4</ele>
        <time>2024-10-17T14:48:36.702Z</time>
      </trkpt>
      <trkpt lat="46.84173" lon="-1.22568">
        <ele>77</ele>
        <time>2024-10-17T14:48:39.185Z</time>
      </trkpt>
      <trkpt lat="46.84172" lon="-1.22624">
        <ele>76.9</ele>
        <time>2024-10-17T14:48:45.538Z</time>
      </trkpt>
      <trkpt lat="46.84168" lon="-1.2266">
        <ele>77</ele>
        <time>2024-10-17T14:48:49.944Z</time>
      </trkpt>
      <trkpt lat="46.84157" lon="-1.2271">
        <ele>76.4</ele>
        <time>2024-10-17T14:48:55.197Z</time>
      </trkpt>
      <trkpt lat="46.84" lon="-1.23236">
        <ele>79</ele>
        <time>2024-10-17T14:50:06.343Z</time>
      </trkpt>
      <trkpt lat="46.83988" lon="-1.23279">
        <ele>79.4</ele>
        <time>2024-10-17T14:50:12.458Z</time>
      </trkpt>
      <trkpt lat="46.83979" lon="-1.23334">
        <ele>79.8</ele>
        <time>2024-10-17T14:50:19.736Z</time>
      </trkpt>
      <trkpt lat="46.83956" lon="-1.23601">
        <ele>80.3</ele>
        <time>2024-10-17T14:50:51.844Z</time>
      </trkpt>
      <trkpt lat="46.83945" lon="-1.23742">
        <ele>75.4</ele>
        <time>2024-10-17T14:51:02.822Z</time>
      </trkpt>
      <trkpt lat="46.83942" lon="-1.238">
        <ele>75.3</ele>
        <time>2024-10-17T14:51:09.425Z</time>
      </trkpt>
      <trkpt lat="46.83943" lon="-1.23829">
        <ele>74.3</ele>
        <time>2024-10-17T14:51:11.673Z</time>
      </trkpt>
      <trkpt lat="46.83946" lon="-1.23864">
        <ele>74.2</ele>
        <time>2024-10-17T14:51:15.617Z</time>
      </trkpt>
      <trkpt lat="46.8396" lon="-1.23947">
        <ele>73</ele>
        <time>2024-10-17T14:51:23.897Z</time>
      </trkpt>
      <trkpt lat="46.83975" lon="-1.24017">
        <ele>71.9</ele>
        <time>2024-10-17T14:51:30.920Z</time>
      </trkpt>
      <trkpt lat="46.83982" lon="-1.24075">
        <ele>71.9</ele>
        <time>2024-10-17T14:51:37.766Z</time>
      </trkpt>
      <trkpt lat="46.83982" lon="-1.24114">
        <ele>72.5</ele>
        <time>2024-10-17T14:51:43.472Z</time>
      </trkpt>
      <trkpt lat="46.83979" lon="-1.24154">
        <ele>73.9</ele>
        <time>2024-10-17T14:51:51.722Z</time>
      </trkpt>
      <trkpt lat="46.83974" lon="-1.24185">
        <ele>74.7</ele>
        <time>2024-10-17T14:51:57.206Z</time>
      </trkpt>
      <trkpt lat="46.83929" lon="-1.24424">
        <ele>80</ele>
        <time>2024-10-17T14:52:37.233Z</time>
      </trkpt>
      <trkpt lat="46.83782" lon="-1.25192">
        <ele>80</ele>
        <time>2024-10-17T14:54:09.941Z</time>
      </trkpt>
      <trkpt lat="46.83768" lon="-1.25234">
        <ele>78.9</ele>
        <time>2024-10-17T14:54:13.994Z</time>
      </trkpt>
      <trkpt lat="46.83757" lon="-1.2526">
        <ele>78.2</ele>
        <time>2024-10-17T14:54:16.666Z</time>
      </trkpt>
      <trkpt lat="46.83738" lon="-1.25291">
        <ele>77.8</ele>
        <time>2024-10-17T14:54:20.925Z</time>
      </trkpt>
      <trkpt lat="46.83719" lon="-1.25318">
        <ele>76.9</ele>
        <time>2024-10-17T14:54:24.297Z</time>
      </trkpt>
      <trkpt lat="46.83627" lon="-1.25429">
        <ele>75</ele>
        <time>2024-10-17T14:54:41.854Z</time>
      </trkpt>
      <trkpt lat="46.83603" lon="-1.25466">
        <ele>74.2</ele>
        <time>2024-10-17T14:54:46.696Z</time>
      </trkpt>
      <trkpt lat="46.83423" lon="-1.25853">
        <ele>63.2</ele>
        <time>2024-10-17T14:55:27.318Z</time>
      </trkpt>
      <trkpt lat="46.83411" lon="-1.25875">
        <ele>63.1</ele>
        <time>2024-10-17T14:55:30.434Z</time>
      </trkpt>
      <trkpt lat="46.83378" lon="-1.25921">
        <ele>62.5</ele>
        <time>2024-10-17T14:55:37.308Z</time>
      </trkpt>
      <trkpt lat="46.83295" lon="-1.26001">
        <ele>63.4</ele>
        <time>2024-10-17T14:55:55.770Z</time>
      </trkpt>
      <trkpt lat="46.8324" lon="-1.26051">
        <ele>65.4</ele>
        <time>2024-10-17T14:56:10.993Z</time>
      </trkpt>
      <trkpt lat="46.83223" lon="-1.26071">
        <ele>66</ele>
        <time>2024-10-17T14:56:15.927Z</time>
      </trkpt>
      <trkpt lat="46.83214" lon="-1.26088">
        <ele>66.4</ele>
        <time>2024-10-17T14:56:19.242Z</time>
      </trkpt>
      <trkpt lat="46.83127" lon="-1.263">
        <ele>66.4</ele>
        <time>2024-10-17T14:56:47.984Z</time>
      </trkpt>
      <trkpt lat="46.83118" lon="-1.26338">
        <ele>66.5</ele>
        <time>2024-10-17T14:56:52.825Z</time>
      </trkpt>
      <trkpt lat="46.83114" lon="-1.26369">
        <ele>66.9</ele>
        <time>2024-10-17T14:56:57.248Z</time>
      </trkpt>
      <trkpt lat="46.83114" lon="-1.26414">
        <ele>66.9</ele>
        <time>2024-10-17T14:57:02.480Z</time>
      </trkpt>
      <trkpt lat="46.83126" lon="-1.26737">
        <ele>58</ele>
        <time>2024-10-17T14:57:29.370Z</time>
      </trkpt>
      <trkpt lat="46.83126" lon="-1.26738">
        <ele>58</ele>
        <time>2024-10-17T14:57:29.486Z</time>
      </trkpt>
      <trkpt lat="46.83125" lon="-1.26758">
        <ele>56.4</ele>
        <time>2024-10-17T14:57:30.885Z</time>
      </trkpt>
      <trkpt lat="46.83122" lon="-1.26775">
        <ele>54.8</ele>
        <time>2024-10-17T14:57:32.110Z</time>
      </trkpt>
      <trkpt lat="46.83107" lon="-1.26814">
        <ele>54.2</ele>
        <time>2024-10-17T14:57:36.477Z</time>
      </trkpt>
      <trkpt lat="46.83062" lon="-1.26908">
        <ele>57.6</ele>
        <time>2024-10-17T14:57:57.876Z</time>
      </trkpt>
      <trkpt lat="46.83041" lon="-1.26945">
        <ele>59.1</ele>
        <time>2024-10-17T14:58:07.101Z</time>
      </trkpt>
      <trkpt lat="46.83023" lon="-1.26971">
        <ele>61.1</ele>
        <time>2024-10-17T14:58:18.153Z</time>
      </trkpt>
      <trkpt lat="46.83006" lon="-1.26989">
        <ele>62.9</ele>
        <time>2024-10-17T14:58:28.193Z</time>
      </trkpt>
      <trkpt lat="46.82996" lon="-1.27007">
        <ele>64.4</ele>
        <time>2024-10-17T14:58:36.706Z</time>
      </trkpt>
      <trkpt lat="46.82983" lon="-1.27009">
        <ele>64.9</ele>
        <time>2024-10-17T14:58:40.057Z</time>
      </trkpt>
      <trkpt lat="46.82922" lon="-1.2704">
        <ele>68.4</ele>
        <time>2024-10-17T14:59:00.263Z</time>
      </trkpt>
      <trkpt lat="46.8288" lon="-1.27063">
        <ele>70.6</ele>
        <time>2024-10-17T14:59:13.399Z</time>
      </trkpt>
      <trkpt lat="46.82872" lon="-1.27057">
        <ele>70.7</ele>
        <time>2024-10-17T14:59:15.105Z</time>
      </trkpt>
      <trkpt lat="46.82854" lon="-1.27034">
        <ele>69.7</ele>
        <time>2024-10-17T14:59:17.976Z</time>
      </trkpt>
      <trkpt lat="46.82824" lon="-1.26997">
        <ele>67.2</ele>
        <time>2024-10-17T14:59:22.053Z</time>
      </trkpt>
      <trkpt lat="46.828" lon="-1.26977">
        <ele>64.4</ele>
        <time>2024-10-17T14:59:24.870Z</time>
      </trkpt>
      <trkpt lat="46.8279" lon="-1.26972">
        <ele>63.4</ele>
        <time>2024-10-17T14:59:25.947Z</time>
      </trkpt>
      <trkpt lat="46.82766" lon="-1.26966">
        <ele>59.9</ele>
        <time>2024-10-17T14:59:28.430Z</time>
      </trkpt>
      <trkpt lat="46.82741" lon="-1.2696">
        <ele>56</ele>
        <time>2024-10-17T14:59:31.013Z</time>
      </trkpt>
      <trkpt lat="46.8273" lon="-1.26956">
        <ele>56.1</ele>
        <time>2024-10-17T14:59:33.113Z</time>
      </trkpt>
      <trkpt lat="46.82712" lon="-1.26944">
        <ele>58.1</ele>
        <time>2024-10-17T14:59:44.613Z</time>
      </trkpt>
      <trkpt lat="46.8267" lon="-1.26907">
        <ele>62.7</ele>
        <time>2024-10-17T15:00:10.678Z</time>
      </trkpt>
      <trkpt lat="46.82643" lon="-1.26887">
        <ele>64.5</ele>
        <time>2024-10-17T15:00:20.826Z</time>
      </trkpt>
      <trkpt lat="46.8261" lon="-1.26867">
        <ele>66.7</ele>
        <time>2024-10-17T15:00:33.144Z</time>
      </trkpt>
      <trkpt lat="46.82596" lon="-1.26862">
        <ele>67.2</ele>
        <time>2024-10-17T15:00:36.685Z</time>
      </trkpt>
      <trkpt lat="46.8258" lon="-1.26848">
        <ele>67.3</ele>
        <time>2024-10-17T15:00:40.023Z</time>
      </trkpt>
      <trkpt lat="46.82543" lon="-1.26814">
        <ele>67.1</ele>
        <time>2024-10-17T15:00:47.138Z</time>
      </trkpt>
      <trkpt lat="46.82501" lon="-1.26783">
        <ele>68.3</ele>
        <time>2024-10-17T15:00:57.543Z</time>
      </trkpt>
      <trkpt lat="46.82467" lon="-1.26769">
        <ele>69.4</ele>
        <time>2024-10-17T15:01:05.870Z</time>
      </trkpt>
      <trkpt lat="46.82447" lon="-1.26761">
        <ele>69.3</ele>
        <time>2024-10-17T15:01:09.239Z</time>
      </trkpt>
      <trkpt lat="46.82407" lon="-1.26748">
        <ele>67.9</ele>
        <time>2024-10-17T15:01:14.446Z</time>
      </trkpt>
      <trkpt lat="46.82349" lon="-1.26723">
        <ele>67</ele>
        <time>2024-10-17T15:01:23.426Z</time>
      </trkpt>
      <trkpt lat="46.82311" lon="-1.26697">
        <ele>66</ele>
        <time>2024-10-17T15:01:29.208Z</time>
      </trkpt>
      <trkpt lat="46.82283" lon="-1.26686">
        <ele>66.3</ele>
        <time>2024-10-17T15:01:34.662Z</time>
      </trkpt>
      <trkpt lat="46.82244" lon="-1.26679">
        <ele>64.6</ele>
        <time>2024-10-17T15:01:39.333Z</time>
      </trkpt>
      <trkpt lat="46.82198" lon="-1.26663">
        <ele>62.7</ele>
        <time>2024-10-17T15:01:45.080Z</time>
      </trkpt>
      <trkpt lat="46.82167" lon="-1.26654">
        <ele>62.6</ele>
        <time>2024-10-17T15:01:50.294Z</time>
      </trkpt>
      <trkpt lat="46.82129" lon="-1.26655">
        <ele>63.5</ele>
        <time>2024-10-17T15:01:58.530Z</time>
      </trkpt>
      <trkpt lat="46.82067" lon="-1.26668">
        <ele>62.8</ele>
        <time>2024-10-17T15:02:08.137Z</time>
      </trkpt>
      <trkpt lat="46.82023" lon="-1.26675">
        <ele>60.4</ele>
        <time>2024-10-17T15:02:13.019Z</time>
      </trkpt>
      <trkpt lat="46.81943" lon="-1.26669">
        <ele>57</ele>
        <time>2024-10-17T15:02:22.597Z</time>
      </trkpt>
      <trkpt lat="46.81888" lon="-1.26667">
        <ele>61</ele>
        <time>2024-10-17T15:02:44.640Z</time>
      </trkpt>
      <trkpt lat="46.81848" lon="-1.26663">
        <ele>65.6</ele>
        <time>2024-10-17T15:03:11.409Z</time>
      </trkpt>
      <trkpt lat="46.81821" lon="-1.26657">
        <ele>68.4</ele>
        <time>2024-10-17T15:03:27.549Z</time>
      </trkpt>
      <trkpt lat="46.81794" lon="-1.26647">
        <ele>69.3</ele>
        <time>2024-10-17T15:03:34.205Z</time>
      </trkpt>
      <trkpt lat="46.81766" lon="-1.26641">
        <ele>69.5</ele>
        <time>2024-10-17T15:03:39.356Z</time>
      </trkpt>
      <trkpt lat="46.81748" lon="-1.26639">
        <ele>68.9</ele>
        <time>2024-10-17T15:03:41.666Z</time>
      </trkpt>
      <trkpt lat="46.817" lon="-1.26649">
        <ele>67.2</ele>
        <time>2024-10-17T15:03:47.786Z</time>
      </trkpt>
      <trkpt lat="46.81664" lon="-1.2666">
        <ele>66</ele>
        <time>2024-10-17T15:03:52.515Z</time>
      </trkpt>
      <trkpt lat="46.81627" lon="-1.26667">
        <ele>66</ele>
        <time>2024-10-17T15:03:58.855Z</time>
      </trkpt>
      <trkpt lat="46.81602" lon="-1.26663">
        <ele>65.9</ele>
        <time>2024-10-17T15:04:02.972Z</time>
      </trkpt>
      <trkpt lat="46.81552" lon="-1.26649">
        <ele>67.5</ele>
        <time>2024-10-17T15:04:15.014Z</time>
      </trkpt>
      <trkpt lat="46.81486" lon="-1.26628">
        <ele>68.7</ele>
        <time>2024-10-17T15:04:28.742Z</time>
      </trkpt>
      <trkpt lat="46.81432" lon="-1.26611">
        <ele>68.4</ele>
        <time>2024-10-17T15:04:37.665Z</time>
      </trkpt>
      <trkpt lat="46.81409" lon="-1.26598">
        <ele>68.5</ele>
        <time>2024-10-17T15:04:42.023Z</time>
      </trkpt>
      <trkpt lat="46.81384" lon="-1.26578">
        <ele>68.8</ele>
        <time>2024-10-17T15:04:47.395Z</time>
      </trkpt>
      <trkpt lat="46.81352" lon="-1.26543">
        <ele>68.6</ele>
        <time>2024-10-17T15:04:53.877Z</time>
      </trkpt>
      <trkpt lat="46.81333" lon="-1.2651">
        <ele>69</ele>
        <time>2024-10-17T15:04:59.615Z</time>
      </trkpt>
      <trkpt lat="46.81309" lon="-1.26463">
        <ele>70.8</ele>
        <time>2024-10-17T15:05:10.767Z</time>
      </trkpt>
      <trkpt lat="46.81288" lon="-1.26426">
        <ele>71.6</ele>
        <time>2024-10-17T15:05:17.946Z</time>
      </trkpt>
      <trkpt lat="46.81261" lon="-1.26401">
        <ele>72</ele>
        <time>2024-10-17T15:05:24.095Z</time>
      </trkpt>
      <trkpt lat="46.8124" lon="-1.26386">
        <ele>72.2</ele>
        <time>2024-10-17T15:05:28.413Z</time>
      </trkpt>
      <trkpt lat="46.81198" lon="-1.26364">
        <ele>73.1</ele>
        <time>2024-10-17T15:05:37.719Z</time>
      </trkpt>
      <trkpt lat="46.81155" lon="-1.26343">
        <ele>74.3</ele>
        <time>2024-10-17T15:05:47.853Z</time>
      </trkpt>
      <trkpt lat="46.81111" lon="-1.26317">
        <ele>73.8</ele>
        <time>2024-10-17T15:05:55.175Z</time>
      </trkpt>
      <trkpt lat="46.81091" lon="-1.26302">
        <ele>74.2</ele>
        <time>2024-10-17T15:05:59.745Z</time>
      </trkpt>
      <trkpt lat="46.81046" lon="-1.26254">
        <ele>74.8</ele>
        <time>2024-10-17T15:06:10.273Z</time>
      </trkpt>
      <trkpt lat="46.80996" lon="-1.26197">
        <ele>74.1</ele>
        <time>2024-10-17T15:06:20.012Z</time>
      </trkpt>
      <trkpt lat="46.80966" lon="-1.26168">
        <ele>73.3</ele>
        <time>2024-10-17T15:06:25.034Z</time>
      </trkpt>
      <trkpt lat="46.80938" lon="-1.26152">
        <ele>73.8</ele>
        <time>2024-10-17T15:06:31.071Z</time>
      </trkpt>
      <trkpt lat="46.80914" lon="-1.26144">
        <ele>75.1</ele>
        <time>2024-10-17T15:06:38.636Z</time>
      </trkpt>
      <trkpt lat="46.80889" lon="-1.26138">
        <ele>76</ele>
        <time>2024-10-17T15:06:44.923Z</time>
      </trkpt>
      <trkpt lat="46.80871" lon="-1.26131">
        <ele>77.4</ele>
        <time>2024-10-17T15:06:52.639Z</time>
      </trkpt>
      <trkpt lat="46.80798" lon="-1.26112">
        <ele>79.3</ele>
        <time>2024-10-17T15:07:09.058Z</time>
      </trkpt>
      <trkpt lat="46.80767" lon="-1.26106">
        <ele>80.3</ele>
        <time>2024-10-17T15:07:16.502Z</time>
      </trkpt>
      <trkpt lat="46.80737" lon="-1.26104">
        <ele>80.7</ele>
        <time>2024-10-17T15:07:22.327Z</time>
      </trkpt>
      <trkpt lat="46.80675" lon="-1.26119">
        <ele>82.3</ele>
        <time>2024-10-17T15:07:36.217Z</time>
      </trkpt>
      <trkpt lat="46.80638" lon="-1.2613">
        <ele>83.7</ele>
        <time>2024-10-17T15:07:45.761Z</time>
      </trkpt>
      <trkpt lat="46.80599" lon="-1.26133">
        <ele>85.3</ele>
        <time>2024-10-17T15:07:56.106Z</time>
      </trkpt>
      <trkpt lat="46.80561" lon="-1.26135">
        <ele>86.8</ele>
        <time>2024-10-17T15:08:05.994Z</time>
      </trkpt>
      <trkpt lat="46.80517" lon="-1.26143">
        <ele>87.3</ele>
        <time>2024-10-17T15:08:14.416Z</time>
      </trkpt>
      <trkpt lat="46.8049" lon="-1.26143">
        <ele>87.9</ele>
        <time>2024-10-17T15:08:20.174Z</time>
      </trkpt>
      <trkpt lat="46.80456" lon="-1.26136">
        <ele>88</ele>
        <time>2024-10-17T15:08:26.174Z</time>
      </trkpt>
      <trkpt lat="46.80382" lon="-1.26115">
        <ele>88</ele>
        <time>2024-10-17T15:08:38.985Z</time>
      </trkpt>
      <trkpt lat="46.80298" lon="-1.26089">
        <ele>87.9</ele>
        <time>2024-10-17T15:08:53.416Z</time>
      </trkpt>
      <trkpt lat="46.8018" lon="-1.26054">
        <ele>86.5</ele>
        <time>2024-10-17T15:09:11.812Z</time>
      </trkpt>
      <trkpt lat="46.80067" lon="-1.26018">
        <ele>86</ele>
        <time>2024-10-17T15:09:30.686Z</time>
      </trkpt>
      <trkpt lat="46.79926" lon="-1.25977">
        <ele>84</ele>
        <time>2024-10-17T15:09:52.216Z</time>
      </trkpt>
      <trkpt lat="46.79837" lon="-1.2595">
        <ele>83.3</ele>
        <time>2024-10-17T15:10:06.599Z</time>
      </trkpt>
      <trkpt lat="46.79807" lon="-1.25939">
        <ele>83</ele>
        <time>2024-10-17T15:10:11.406Z</time>
      </trkpt>
      <trkpt lat="46.79792" lon="-1.2593">
        <ele>82.7</ele>
        <time>2024-10-17T15:10:13.741Z</time>
      </trkpt>
      <trkpt lat="46.79773" lon="-1.2591">
        <ele>82</ele>
        <time>2024-10-17T15:10:16.816Z</time>
      </trkpt>
      <trkpt lat="46.79755" lon="-1.25886">
        <ele>81.9</ele>
        <time>2024-10-17T15:10:20.802Z</time>
      </trkpt>
      <trkpt lat="46.79691" lon="-1.25791">
        <ele>79.9</ele>
        <time>2024-10-17T15:10:33.573Z</time>
      </trkpt>
      <trkpt lat="46.79677" lon="-1.25768">
        <ele>79.4</ele>
        <time>2024-10-17T15:10:36.478Z</time>
      </trkpt>
      <trkpt lat="46.7963" lon="-1.25713">
        <ele>77.1</ele>
        <time>2024-10-17T15:10:43.905Z</time>
      </trkpt>
      <trkpt lat="46.79581" lon="-1.25651">
        <ele>74</ele>
        <time>2024-10-17T15:10:51.369Z</time>
      </trkpt>
      <trkpt lat="46.79552" lon="-1.25623">
        <ele>72.4</ele>
        <time>2024-10-17T15:10:55.422Z</time>
      </trkpt>
      <trkpt lat="46.79467" lon="-1.25558">
        <ele>69.4</ele>
        <time>2024-10-17T15:11:07.887Z</time>
      </trkpt>
      <trkpt lat="46.79417" lon="-1.25522">
        <ele>67.4</ele>
        <time>2024-10-17T15:11:14.881Z</time>
      </trkpt>
      <trkpt lat="46.7939" lon="-1.25496">
        <ele>65.8</ele>
        <time>2024-10-17T15:11:18.563Z</time>
      </trkpt>
      <trkpt lat="46.79374" lon="-1.25478">
        <ele>65.4</ele>
        <time>2024-10-17T15:11:21.439Z</time>
      </trkpt>
      <trkpt lat="46.79356" lon="-1.2544">
        <ele>67.4</ele>
        <time>2024-10-17T15:11:32.588Z</time>
      </trkpt>
      <trkpt lat="46.79338" lon="-1.25412">
        <ele>68.3</ele>
        <time>2024-10-17T15:11:39.014Z</time>
      </trkpt>
      <trkpt lat="46.79312" lon="-1.25382">
        <ele>70.1</ele>
        <time>2024-10-17T15:11:49.398Z</time>
      </trkpt>
      <trkpt lat="46.7926" lon="-1.25324">
        <ele>72.9</ele>
        <time>2024-10-17T15:12:07.121Z</time>
      </trkpt>
      <trkpt lat="46.79187" lon="-1.25243">
        <ele>76.3</ele>
        <time>2024-10-17T15:12:30.295Z</time>
      </trkpt>
      <trkpt lat="46.79141" lon="-1.25191">
        <ele>78.3</ele>
        <time>2024-10-17T15:12:44.536Z</time>
      </trkpt>
      <trkpt lat="46.79117" lon="-1.25155">
        <ele>80</ele>
        <time>2024-10-17T15:12:54.659Z</time>
      </trkpt>
      <trkpt lat="46.79089" lon="-1.25105">
        <ele>80.8</ele>
        <time>2024-10-17T15:13:03.678Z</time>
      </trkpt>
      <trkpt lat="46.79052" lon="-1.25039">
        <ele>79.4</ele>
        <time>2024-10-17T15:13:11.717Z</time>
      </trkpt>
      <trkpt lat="46.79021" lon="-1.2499">
        <ele>78.6</ele>
        <time>2024-10-17T15:13:18.349Z</time>
      </trkpt>
      <trkpt lat="46.78999" lon="-1.2496">
        <ele>77.1</ele>
        <time>2024-10-17T15:13:21.768Z</time>
      </trkpt>
      <trkpt lat="46.78967" lon="-1.24917">
        <ele>77.2</ele>
        <time>2024-10-17T15:13:29.322Z</time>
      </trkpt>
      <trkpt lat="46.78953" lon="-1.24892">
        <ele>76.8</ele>
        <time>2024-10-17T15:13:32.517Z</time>
      </trkpt>
      <trkpt lat="46.78923" lon="-1.24824">
        <ele>75.1</ele>
        <time>2024-10-17T15:13:39.745Z</time>
      </trkpt>
      <trkpt lat="46.78887" lon="-1.24744">
        <ele>76.2</ele>
        <time>2024-10-17T15:13:52.928Z</time>
      </trkpt>
      <trkpt lat="46.78855" lon="-1.24693">
        <ele>77.2</ele>
        <time>2024-10-17T15:14:02.908Z</time>
      </trkpt>
      <trkpt lat="46.78839" lon="-1.2468">
        <ele>77.4</ele>
        <time>2024-10-17T15:14:06.373Z</time>
      </trkpt>
      <trkpt lat="46.78755" lon="-1.24624">
        <ele>79.4</ele>
        <time>2024-10-17T15:14:25.943Z</time>
      </trkpt>
      <trkpt lat="46.78664" lon="-1.24563">
        <ele>80.7</ele>
        <time>2024-10-17T15:14:45.297Z</time>
      </trkpt>
      <trkpt lat="46.78545" lon="-1.24484">
        <ele>83.9</ele>
        <time>2024-10-17T15:15:13.876Z</time>
      </trkpt>
      <trkpt lat="46.78504" lon="-1.24457">
        <ele>83.7</ele>
        <time>2024-10-17T15:15:21.207Z</time>
      </trkpt>
      <trkpt lat="46.78491" lon="-1.2445">
        <ele>83.7</ele>
        <time>2024-10-17T15:15:23.562Z</time>
      </trkpt>
      <trkpt lat="46.78441" lon="-1.24431">
        <ele>84</ele>
        <time>2024-10-17T15:15:32.850Z</time>
      </trkpt>
      <trkpt lat="46.78369" lon="-1.24407">
        <ele>85.3</ele>
        <time>2024-10-17T15:15:47.833Z</time>
      </trkpt>
      <trkpt lat="46.78335" lon="-1.24384">
        <ele>86</ele>
        <time>2024-10-17T15:15:55.524Z</time>
      </trkpt>
      <trkpt lat="46.78303" lon="-1.24347">
        <ele>86.5</ele>
        <time>2024-10-17T15:16:03.354Z</time>
      </trkpt>
      <trkpt lat="46.78258" lon="-1.24295">
        <ele>87.8</ele>
        <time>2024-10-17T15:16:15.649Z</time>
      </trkpt>
      <trkpt lat="46.78231" lon="-1.24271">
        <ele>88</ele>
        <time>2024-10-17T15:16:21.361Z</time>
      </trkpt>
      <trkpt lat="46.78168" lon="-1.24224">
        <ele>88</ele>
        <time>2024-10-17T15:16:33.383Z</time>
      </trkpt>
      <trkpt lat="46.78124" lon="-1.24178">
        <ele>88.7</ele>
        <time>2024-10-17T15:16:43.838Z</time>
      </trkpt>
      <trkpt lat="46.78081" lon="-1.24126">
        <ele>88.5</ele>
        <time>2024-10-17T15:16:53.012Z</time>
      </trkpt>
      <trkpt lat="46.78046" lon="-1.24095">
        <ele>88.1</ele>
        <time>2024-10-17T15:16:59.369Z</time>
      </trkpt>
      <trkpt lat="46.78005" lon="-1.24061">
        <ele>87.5</ele>
        <time>2024-10-17T15:17:06.504Z</time>
      </trkpt>
      <trkpt lat="46.77965" lon="-1.24035">
        <ele>88.5</ele>
        <time>2024-10-17T15:17:15.904Z</time>
      </trkpt>
      <trkpt lat="46.77936" lon="-1.24007">
        <ele>88.5</ele>
        <time>2024-10-17T15:17:21.812Z</time>
      </trkpt>
      <trkpt lat="46.779" lon="-1.23953">
        <ele>89.1</ele>
        <time>2024-10-17T15:17:31.650Z</time>
      </trkpt>
      <trkpt lat="46.7785" lon="-1.23873">
        <ele>89.8</ele>
        <time>2024-10-17T15:17:45.476Z</time>
      </trkpt>
      <trkpt lat="46.77782" lon="-1.23758">
        <ele>88.5</ele>
        <time>2024-10-17T15:18:01.252Z</time>
      </trkpt>
      <trkpt lat="46.77729" lon="-1.23672">
        <ele>86.9</ele>
        <time>2024-10-17T15:18:12.501Z</time>
      </trkpt>
      <trkpt lat="46.77709" lon="-1.23644">
        <ele>86.1</ele>
        <time>2024-10-17T15:18:16.169Z</time>
      </trkpt>
      <trkpt lat="46.77691" lon="-1.2362">
        <ele>86.1</ele>
        <time>2024-10-17T15:18:20.311Z</time>
      </trkpt>
      <trkpt lat="46.77654" lon="-1.23579">
        <ele>87.8</ele>
        <time>2024-10-17T15:18:31.984Z</time>
      </trkpt>
      <trkpt lat="46.77621" lon="-1.23545">
        <ele>89.3</ele>
        <time>2024-10-17T15:18:42.200Z</time>
      </trkpt>
      <trkpt lat="46.77601" lon="-1.23528">
        <ele>90</ele>
        <time>2024-10-17T15:18:47.600Z</time>
      </trkpt>
      <trkpt lat="46.776" lon="-1.23532">
        <ele>90</ele>
        <time>2024-10-17T15:18:48.096Z</time>
      </trkpt>
      <trkpt lat="46.77593" lon="-1.23536">
        <ele>90</ele>
        <time>2024-10-17T15:18:49.373Z</time>
      </trkpt>
      <trkpt lat="46.77583" lon="-1.23528">
        <ele>90</ele>
        <time>2024-10-17T15:18:51.311Z</time>
      </trkpt>
      <trkpt lat="46.7758" lon="-1.23515">
        <ele>90.2</ele>
        <time>2024-10-17T15:18:53.294Z</time>
      </trkpt>
      <trkpt lat="46.77583" lon="-1.23502">
        <ele>90</ele>
        <time>2024-10-17T15:18:54.616Z</time>
      </trkpt>
      <trkpt lat="46.77586" lon="-1.23495">
        <ele>89.7</ele>
        <time>2024-10-17T15:18:55.244Z</time>
      </trkpt>
      <trkpt lat="46.77573" lon="-1.23444">
        <ele>89.4</ele>
        <time>2024-10-17T15:19:01.123Z</time>
      </trkpt>
      <trkpt lat="46.77531" lon="-1.23301">
        <ele>87</ele>
        <time>2024-10-17T15:19:15.964Z</time>
      </trkpt>
      <trkpt lat="46.77509" lon="-1.23228">
        <ele>86.7</ele>
        <time>2024-10-17T15:19:24.782Z</time>
      </trkpt>
      <trkpt lat="46.77504" lon="-1.23226">
        <ele>86.9</ele>
        <time>2024-10-17T15:19:26.116Z</time>
      </trkpt>
      <trkpt lat="46.77499" lon="-1.23218">
        <ele>86.9</ele>
        <time>2024-10-17T15:19:27.377Z</time>
      </trkpt>
      <trkpt lat="46.77501" lon="-1.23209">
        <ele>86.5</ele>
        <time>2024-10-17T15:19:28.058Z</time>
      </trkpt>
      <trkpt lat="46.77503" lon="-1.23205">
        <ele>86.4</ele>
        <time>2024-10-17T15:19:28.505Z</time>
      </trkpt>
      <trkpt lat="46.77482" lon="-1.23141">
        <ele>86.4</ele>
        <time>2024-10-17T15:19:36.764Z</time>
      </trkpt>
      <trkpt lat="46.77467" lon="-1.23099">
        <ele>86.2</ele>
        <time>2024-10-17T15:19:41.969Z</time>
      </trkpt>
      <trkpt lat="46.77445" lon="-1.23062">
        <ele>85.2</ele>
        <time>2024-10-17T15:19:46.379Z</time>
      </trkpt>
      <trkpt lat="46.7742" lon="-1.23012">
        <ele>85.4</ele>
        <time>2024-10-17T15:19:53.920Z</time>
      </trkpt>
      <trkpt lat="46.77403" lon="-1.22964">
        <ele>85.5</ele>
        <time>2024-10-17T15:20:00.374Z</time>
      </trkpt>
      <trkpt lat="46.77385" lon="-1.2293">
        <ele>86.2</ele>
        <time>2024-10-17T15:20:06.760Z</time>
      </trkpt>
      <trkpt lat="46.77367" lon="-1.22907">
        <ele>86.4</ele>
        <time>2024-10-17T15:20:11.170Z</time>
      </trkpt>
      <trkpt lat="46.77346" lon="-1.22889">
        <ele>86.5</ele>
        <time>2024-10-17T15:20:15.476Z</time>
      </trkpt>
      <trkpt lat="46.77326" lon="-1.22867">
        <ele>85.9</ele>
        <time>2024-10-17T15:20:18.923Z</time>
      </trkpt>
      <trkpt lat="46.77315" lon="-1.22847">
        <ele>85</ele>
        <time>2024-10-17T15:20:20.899Z</time>
      </trkpt>
      <trkpt lat="46.7731" lon="-1.22824">
        <ele>84</ele>
        <time>2024-10-17T15:20:22.650Z</time>
      </trkpt>
      <trkpt lat="46.77311" lon="-1.22796">
        <ele>83</ele>
        <time>2024-10-17T15:20:24.798Z</time>
      </trkpt>
      <trkpt lat="46.77318" lon="-1.22748">
        <ele>81.4</ele>
        <time>2024-10-17T15:20:28.674Z</time>
      </trkpt>
      <trkpt lat="46.7732" lon="-1.22721">
        <ele>81</ele>
        <time>2024-10-17T15:20:31.287Z</time>
      </trkpt>
      <trkpt lat="46.77317" lon="-1.22703">
        <ele>80.3</ele>
        <time>2024-10-17T15:20:32.677Z</time>
      </trkpt>
      <trkpt lat="46.77308" lon="-1.22693">
        <ele>80</ele>
        <time>2024-10-17T15:20:34.202Z</time>
      </trkpt>
      <trkpt lat="46.77296" lon="-1.22684">
        <ele>80</ele>
        <time>2024-10-17T15:20:36.495Z</time>
      </trkpt>
      <trkpt lat="46.77276" lon="-1.22678">
        <ele>80</ele>
        <time>2024-10-17T15:20:39.965Z</time>
      </trkpt>
      <trkpt lat="46.77251" lon="-1.22688">
        <ele>80</ele>
        <time>2024-10-17T15:20:44.370Z</time>
      </trkpt>
      <trkpt lat="46.77234" lon="-1.22708">
        <ele>80.5</ele>
        <time>2024-10-17T15:20:49.060Z</time>
      </trkpt>
      <trkpt lat="46.77216" lon="-1.22731">
        <ele>81.2</ele>
        <time>2024-10-17T15:20:54.579Z</time>
      </trkpt>
      <trkpt lat="46.77189" lon="-1.22764">
        <ele>82.9</ele>
        <time>2024-10-17T15:21:04.792Z</time>
      </trkpt>
      <trkpt lat="46.7718" lon="-1.22756">
        <ele>83.6</ele>
        <time>2024-10-17T15:21:08.670Z</time>
      </trkpt>
      <trkpt lat="46.77173" lon="-1.22749">
        <ele>84.3</ele>
        <time>2024-10-17T15:21:12.554Z</time>
      </trkpt>
      <trkpt lat="46.77172" lon="-1.22727">
        <ele>83.1</ele>
        <time>2024-10-17T15:21:14.094Z</time>
      </trkpt>
      <trkpt lat="46.77171" lon="-1.22695">
        <ele>81.9</ele>
        <time>2024-10-17T15:21:16.506Z</time>
      </trkpt>
      <trkpt lat="46.77176" lon="-1.2267">
        <ele>81.7</ele>
        <time>2024-10-17T15:21:19.241Z</time>
      </trkpt>
      <trkpt lat="46.77178" lon="-1.22661">
        <ele>81.6</ele>
        <time>2024-10-17T15:21:20.199Z</time>
      </trkpt>
      <trkpt lat="46.7717" lon="-1.22644">
        <ele>81.9</ele>
        <time>2024-10-17T15:21:23.180Z</time>
      </trkpt>
      <trkpt lat="46.77163" lon="-1.22628">
        <ele>82.5</ele>
        <time>2024-10-17T15:21:26.851Z</time>
      </trkpt>
      <trkpt lat="46.77157" lon="-1.22615">
        <ele>83.2</ele>
        <time>2024-10-17T15:21:30.737Z</time>
      </trkpt>
      <trkpt lat="46.77147" lon="-1.22587">
        <ele>83.7</ele>
        <time>2024-10-17T15:21:35.395Z</time>
      </trkpt>
      <trkpt lat="46.77135" lon="-1.22551">
        <ele>84.1</ele>
        <time>2024-10-17T15:21:40.784Z</time>
      </trkpt>
      <trkpt lat="46.77121" lon="-1.22505">
        <ele>84.1</ele>
        <time>2024-10-17T15:21:46.643Z</time>
      </trkpt>
      <trkpt lat="46.77107" lon="-1.22462">
        <ele>84.1</ele>
        <time>2024-10-17T15:21:52.185Z</time>
      </trkpt>
      <trkpt lat="46.77093" lon="-1.22428">
        <ele>84</ele>
        <time>2024-10-17T15:21:56.645Z</time>
      </trkpt>
      <trkpt lat="46.77067" lon="-1.2239">
        <ele>83.1</ele>
        <time>2024-10-17T15:22:01.689Z</time>
      </trkpt>
      <trkpt lat="46.77038" lon="-1.22347">
        <ele>82.8</ele>
        <time>2024-10-17T15:22:08.255Z</time>
      </trkpt>
      <trkpt lat="46.7701" lon="-1.22303">
        <ele>82.6</ele>
        <time>2024-10-17T15:22:14.935Z</time>
      </trkpt>
      <trkpt lat="46.76993" lon="-1.22271">
        <ele>83.4</ele>
        <time>2024-10-17T15:22:21.304Z</time>
      </trkpt>
      <trkpt lat="46.76978" lon="-1.22217">
        <ele>84.8</ele>
        <time>2024-10-17T15:22:31.155Z</time>
      </trkpt>
      <trkpt lat="46.76958" lon="-1.2211">
        <ele>84.5</ele>
        <time>2024-10-17T15:22:43.595Z</time>
      </trkpt>
      <trkpt lat="46.76948" lon="-1.22077">
        <ele>84.6</ele>
        <time>2024-10-17T15:22:47.962Z</time>
      </trkpt>
      <trkpt lat="46.76929" lon="-1.22038">
        <ele>84.2</ele>
        <time>2024-10-17T15:22:52.945Z</time>
      </trkpt>
      <trkpt lat="46.76882" lon="-1.21956">
        <ele>82.1</ele>
        <time>2024-10-17T15:23:02.654Z</time>
      </trkpt>
      <trkpt lat="46.76843" lon="-1.21885">
        <ele>81.3</ele>
        <time>2024-10-17T15:23:12.078Z</time>
      </trkpt>
      <trkpt lat="46.76802" lon="-1.21808">
        <ele>83.1</ele>
        <time>2024-10-17T15:23:27.091Z</time>
      </trkpt>
      <trkpt lat="46.76778" lon="-1.21757">
        <ele>83.2</ele>
        <time>2024-10-17T15:23:34.458Z</time>
      </trkpt>
      <trkpt lat="46.76754" lon="-1.21689">
        <ele>83.4</ele>
        <time>2024-10-17T15:23:43.695Z</time>
      </trkpt>
      <trkpt lat="46.76742" lon="-1.21641">
        <ele>82.4</ele>
        <time>2024-10-17T15:23:48.339Z</time>
      </trkpt>
      <trkpt lat="46.76731" lon="-1.216">
        <ele>82</ele>
        <time>2024-10-17T15:23:52.881Z</time>
      </trkpt>
      <trkpt lat="46.76724" lon="-1.21567">
        <ele>81.9</ele>
        <time>2024-10-17T15:23:56.746Z</time>
      </trkpt>
      <trkpt lat="46.76707" lon="-1.21465">
        <ele>82</ele>
        <time>2024-10-17T15:24:09.129Z</time>
      </trkpt>
      <trkpt lat="46.76685" lon="-1.21349">
        <ele>80.6</ele>
        <time>2024-10-17T15:24:21.155Z</time>
      </trkpt>
      <trkpt lat="46.76672" lon="-1.21302">
        <ele>80.1</ele>
        <time>2024-10-17T15:24:26.333Z</time>
      </trkpt>
      <trkpt lat="46.76612" lon="-1.21139">
        <ele>82</ele>
        <time>2024-10-17T15:24:51.350Z</time>
      </trkpt>
      <trkpt lat="46.76539" lon="-1.20941">
        <ele>87.6</ele>
        <time>2024-10-17T15:25:29.948Z</time>
      </trkpt>
      <trkpt lat="46.76456" lon="-1.20723">
        <ele>91.6</ele>
        <time>2024-10-17T15:26:06.861Z</time>
      </trkpt>
      <trkpt lat="46.76419" lon="-1.20619">
        <ele>92.9</ele>
        <time>2024-10-17T15:26:22.907Z</time>
      </trkpt>
      <trkpt lat="46.76406" lon="-1.20573">
        <ele>93.4</ele>
        <time>2024-10-17T15:26:29.612Z</time>
      </trkpt>
      <trkpt lat="46.76401" lon="-1.20549">
        <ele>93.6</ele>
        <time>2024-10-17T15:26:32.888Z</time>
      </trkpt>
      <trkpt lat="46.76399" lon="-1.20512">
        <ele>93.6</ele>
        <time>2024-10-17T15:26:37.208Z</time>
      </trkpt>
      <trkpt lat="46.76398" lon="-1.20494">
        <ele>93.7</ele>
        <time>2024-10-17T15:26:39.483Z</time>
      </trkpt>
      <trkpt lat="46.76401" lon="-1.20468">
        <ele>93.6</ele>
        <time>2024-10-17T15:26:42.398Z</time>
      </trkpt>
      <trkpt lat="46.76404" lon="-1.2043">
        <ele>93.2</ele>
        <time>2024-10-17T15:26:46.276Z</time>
      </trkpt>
      <trkpt lat="46.76415" lon="-1.20389">
        <ele>93.1</ele>
        <time>2024-10-17T15:26:51.244Z</time>
      </trkpt>
      <trkpt lat="46.76437" lon="-1.20337">
        <ele>92.2</ele>
        <time>2024-10-17T15:26:57.125Z</time>
      </trkpt>
      <trkpt lat="46.76456" lon="-1.20295">
        <ele>91.3</ele>
        <time>2024-10-17T15:27:01.789Z</time>
      </trkpt>
      <trkpt lat="46.76466" lon="-1.20263">
        <ele>91.2</ele>
        <time>2024-10-17T15:27:05.727Z</time>
      </trkpt>
      <trkpt lat="46.76473" lon="-1.20227">
        <ele>91.8</ele>
        <time>2024-10-17T15:27:11.266Z</time>
      </trkpt>
      <trkpt lat="46.76474" lon="-1.20191">
        <ele>92.9</ele>
        <time>2024-10-17T15:27:18.099Z</time>
      </trkpt>
      <trkpt lat="46.76475" lon="-1.19949">
        <ele>89.2</ele>
        <time>2024-10-17T15:27:41.225Z</time>
      </trkpt>
      <trkpt lat="46.76476" lon="-1.19719">
        <ele>87.3</ele>
        <time>2024-10-17T15:28:05.205Z</time>
      </trkpt>
      <trkpt lat="46.76477" lon="-1.19575">
        <ele>87.2</ele>
        <time>2024-10-17T15:28:21.808Z</time>
      </trkpt>
      <trkpt lat="46.76473" lon="-1.19528">
        <ele>87.1</ele>
        <time>2024-10-17T15:28:27.163Z</time>
      </trkpt>
      <trkpt lat="46.76457" lon="-1.19489">
        <ele>86.9</ele>
        <time>2024-10-17T15:28:32.148Z</time>
      </trkpt>
      <trkpt lat="46.76415" lon="-1.19424">
        <ele>84.9</ele>
        <time>2024-10-17T15:28:40.015Z</time>
      </trkpt>
      <trkpt lat="46.7634" lon="-1.19315">
        <ele>82.7</ele>
        <time>2024-10-17T15:28:54.966Z</time>
      </trkpt>
      <trkpt lat="46.76245" lon="-1.19171">
        <ele>81.6</ele>
        <time>2024-10-17T15:29:16.571Z</time>
      </trkpt>
      <trkpt lat="46.76213" lon="-1.19116">
        <ele>79.7</ele>
        <time>2024-10-17T15:29:22.655Z</time>
      </trkpt>
      <trkpt lat="46.76196" lon="-1.19077">
        <ele>79</ele>
        <time>2024-10-17T15:29:27.081Z</time>
      </trkpt>
      <trkpt lat="46.76173" lon="-1.19006">
        <ele>77.2</ele>
        <time>2024-10-17T15:29:33.955Z</time>
      </trkpt>
      <trkpt lat="46.76147" lon="-1.18928">
        <ele>75.7</ele>
        <time>2024-10-17T15:29:42.050Z</time>
      </trkpt>
      <trkpt lat="46.76115" lon="-1.18842">
        <ele>73</ele>
        <time>2024-10-17T15:29:50.193Z</time>
      </trkpt>
      <trkpt lat="46.75985" lon="-1.18614">
        <ele>74.5</ele>
        <time>2024-10-17T15:30:27.301Z</time>
      </trkpt>
      <trkpt lat="46.75875" lon="-1.18428">
        <ele>72.2</ele>
        <time>2024-10-17T15:30:52.565Z</time>
      </trkpt>
      <trkpt lat="46.75843" lon="-1.18387">
        <ele>70.9</ele>
        <time>2024-10-17T15:30:58.128Z</time>
      </trkpt>
      <trkpt lat="46.75773" lon="-1.1831">
        <ele>71</ele>
        <time>2024-10-17T15:31:13.186Z</time>
      </trkpt>
      <trkpt lat="46.75603" lon="-1.18119">
        <ele>78.8</ele>
        <time>2024-10-17T15:32:06.947Z</time>
      </trkpt>
      <trkpt lat="46.75577" lon="-1.18084">
        <ele>79.5</ele>
        <time>2024-10-17T15:32:14.293Z</time>
      </trkpt>
      <trkpt lat="46.7555" lon="-1.18038">
        <ele>80.7</ele>
        <time>2024-10-17T15:32:23.830Z</time>
      </trkpt>
      <trkpt lat="46.75437" lon="-1.17834">
        <ele>81.6</ele>
        <time>2024-10-17T15:32:55.888Z</time>
      </trkpt>
      <trkpt lat="46.75384" lon="-1.17743">
        <ele>81.1</ele>
        <time>2024-10-17T15:33:09.024Z</time>
      </trkpt>
      <trkpt lat="46.75336" lon="-1.17657">
        <ele>79.1</ele>
        <time>2024-10-17T15:33:19.289Z</time>
      </trkpt>
      <trkpt lat="46.75309" lon="-1.17586">
        <ele>76.1</ele>
        <time>2024-10-17T15:33:25.438Z</time>
      </trkpt>
      <trkpt lat="46.75297" lon="-1.17539">
        <ele>74.7</ele>
        <time>2024-10-17T15:33:29.598Z</time>
      </trkpt>
      <trkpt lat="46.75288" lon="-1.17486">
        <ele>73.8</ele>
        <time>2024-10-17T15:33:34.743Z</time>
      </trkpt>
      <trkpt lat="46.75285" lon="-1.17415">
        <ele>73.5</ele>
        <time>2024-10-17T15:33:42.564Z</time>
      </trkpt>
      <trkpt lat="46.75276" lon="-1.17245">
        <ele>73.2</ele>
        <time>2024-10-17T15:34:01.942Z</time>
      </trkpt>
      <trkpt lat="46.75254" lon="-1.17053">
        <ele>75.7</ele>
        <time>2024-10-17T15:34:29.334Z</time>
      </trkpt>
      <trkpt lat="46.75242" lon="-1.16928">
        <ele>75.4</ele>
        <time>2024-10-17T15:34:43.558Z</time>
      </trkpt>
      <trkpt lat="46.75241" lon="-1.16874">
        <ele>76.6</ele>
        <time>2024-10-17T15:34:52.414Z</time>
      </trkpt>
      <trkpt lat="46.75252" lon="-1.16739">
        <ele>79.3</ele>
        <time>2024-10-17T15:35:13.837Z</time>
      </trkpt>
      <trkpt lat="46.75275" lon="-1.16518">
        <ele>77.8</ele>
        <time>2024-10-17T15:35:37.619Z</time>
      </trkpt>
      <trkpt lat="46.7528" lon="-1.16452">
        <ele>75.9</ele>
        <time>2024-10-17T15:35:43.086Z</time>
      </trkpt>
      <trkpt lat="46.75278" lon="-1.16385">
        <ele>75</ele>
        <time>2024-10-17T15:35:49.643Z</time>
      </trkpt>
      <trkpt lat="46.75271" lon="-1.16329">
        <ele>74.5</ele>
        <time>2024-10-17T15:35:55.539Z</time>
      </trkpt>
      <trkpt lat="46.75265" lon="-1.16293">
        <ele>74.7</ele>
        <time>2024-10-17T15:36:00.198Z</time>
      </trkpt>
      <trkpt lat="46.7525" lon="-1.16238">
        <ele>75.4</ele>
        <time>2024-10-17T15:36:08.397Z</time>
      </trkpt>
      <trkpt lat="46.75224" lon="-1.16158">
        <ele>76.3</ele>
        <time>2024-10-17T15:36:20.351Z</time>
      </trkpt>
      <trkpt lat="46.75159" lon="-1.1595">
        <ele>78</ele>
        <time>2024-10-17T15:36:49.973Z</time>
      </trkpt>
      <trkpt lat="46.75096" lon="-1.1575">
        <ele>80</ele>
        <time>2024-10-17T15:37:19.209Z</time>
      </trkpt>
      <trkpt lat="46.7504" lon="-1.15568">
        <ele>81.8</ele>
        <time>2024-10-17T15:37:45.683Z</time>
      </trkpt>
      <trkpt lat="46.75032" lon="-1.1553">
        <ele>81.8</ele>
        <time>2024-10-17T15:37:50.312Z</time>
      </trkpt>
      <trkpt lat="46.75022" lon="-1.15471">
        <ele>81.2</ele>
        <time>2024-10-17T15:37:56.521Z</time>
      </trkpt>
      <trkpt lat="46.75005" lon="-1.15256">
        <ele>78.6</ele>
        <time>2024-10-17T15:38:18.051Z</time>
      </trkpt>
      <trkpt lat="46.74979" lon="-1.14909">
        <ele>78.5</ele>
        <time>2024-10-17T15:38:58.535Z</time>
      </trkpt>
      <trkpt lat="46.74957" lon="-1.14639">
        <ele>70.7</ele>
        <time>2024-10-17T15:39:20.904Z</time>
      </trkpt>
      <trkpt lat="46.74941" lon="-1.14431">
        <ele>66.2</ele>
        <time>2024-10-17T15:39:39.521Z</time>
      </trkpt>
      <trkpt lat="46.74919" lon="-1.14159">
        <ele>68.1</ele>
        <time>2024-10-17T15:40:14.749Z</time>
      </trkpt>
      <trkpt lat="46.74905" lon="-1.13972">
        <ele>72.7</ele>
        <time>2024-10-17T15:40:46.793Z</time>
      </trkpt>
      <trkpt lat="46.7489" lon="-1.13826">
        <ele>71.6</ele>
        <time>2024-10-17T15:41:02.351Z</time>
      </trkpt>
      <trkpt lat="46.74862" lon="-1.13679">
        <ele>67.4</ele>
        <time>2024-10-17T15:41:15.058Z</time>
      </trkpt>
      <trkpt lat="46.74823" lon="-1.13485">
        <ele>60</ele>
        <time>2024-10-17T15:41:30.419Z</time>
      </trkpt>
      <trkpt lat="46.74787" lon="-1.13305">
        <ele>56.7</ele>
        <time>2024-10-17T15:41:47.861Z</time>
      </trkpt>
      <trkpt lat="46.74775" lon="-1.13221">
        <ele>55.8</ele>
        <time>2024-10-17T15:41:56.560Z</time>
      </trkpt>
      <trkpt lat="46.74774" lon="-1.13166">
        <ele>55.9</ele>
        <time>2024-10-17T15:42:03.132Z</time>
      </trkpt>
      <trkpt lat="46.74774" lon="-1.13094">
        <ele>56.8</ele>
        <time>2024-10-17T15:42:13.210Z</time>
      </trkpt>
      <trkpt lat="46.74784" lon="-1.12708">
        <ele>52.6</ele>
        <time>2024-10-17T15:42:52.185Z</time>
      </trkpt>
      <trkpt lat="46.74792" lon="-1.12364">
        <ele>51.9</ele>
        <time>2024-10-17T15:43:31.161Z</time>
      </trkpt>
      <trkpt lat="46.74797" lon="-1.1218">
        <ele>57.7</ele>
        <time>2024-10-17T15:44:06.710Z</time>
      </trkpt>
      <trkpt lat="46.74797" lon="-1.12093">
        <ele>55.9</ele>
        <time>2024-10-17T15:44:14.520Z</time>
      </trkpt>
      <trkpt lat="46.7479" lon="-1.12028">
        <ele>52.6</ele>
        <time>2024-10-17T15:44:19.117Z</time>
      </trkpt>
      <trkpt lat="46.74769" lon="-1.11921">
        <ele>49.8</ele>
        <time>2024-10-17T15:44:28.625Z</time>
      </trkpt>
      <trkpt lat="46.74672" lon="-1.1143">
        <ele>50.7</ele>
        <time>2024-10-17T15:45:29.613Z</time>
      </trkpt>
      <trkpt lat="46.74853" lon="-1.11437">
        <ele>50</ele>
        <time>2024-10-17T15:45:59.286Z</time>
      </trkpt>
      <trkpt lat="46.74907" lon="-1.11406">
        <ele>51</ele>
        <time>2024-10-17T15:46:11.013Z</time>
      </trkpt>
      <trkpt lat="46.74969" lon="-1.11325">
        <ele>54.7</ele>
        <time>2024-10-17T15:46:34.023Z</time>
      </trkpt>
      <trkpt lat="46.74999" lon="-1.11255">
        <ele>58.9</ele>
        <time>2024-10-17T15:46:57.169Z</time>
      </trkpt>
      <trkpt lat="46.75016" lon="-1.11144">
        <ele>63.2</ele>
        <time>2024-10-17T15:47:21.865Z</time>
      </trkpt>
      <trkpt lat="46.75018" lon="-1.10977">
        <ele>59.8</ele>
        <time>2024-10-17T15:47:36.914Z</time>
      </trkpt>
      <trkpt lat="46.75011" lon="-1.10832">
        <ele>58.6</ele>
        <time>2024-10-17T15:47:52.074Z</time>
      </trkpt>
      <trkpt lat="46.74958" lon="-1.10686">
        <ele>59.8</ele>
        <time>2024-10-17T15:48:13.428Z</time>
      </trkpt>
      <trkpt lat="46.74951" lon="-1.10623">
        <ele>59.2</ele>
        <time>2024-10-17T15:48:19.988Z</time>
      </trkpt>
      <trkpt lat="46.74964" lon="-1.1047">
        <ele>56.4</ele>
        <time>2024-10-17T15:48:34.235Z</time>
      </trkpt>
      <trkpt lat="46.75008" lon="-1.09981">
        <ele>60.3</ele>
        <time>2024-10-17T15:49:38.593Z</time>
      </trkpt>
      <trkpt lat="46.75008" lon="-1.09982">
        <ele>60.3</ele>
        <time>2024-10-17T15:49:38.709Z</time>
      </trkpt>
      <trkpt lat="46.75025" lon="-1.09806">
        <ele>56</ele>
        <time>2024-10-17T15:49:54.052Z</time>
      </trkpt>
      <trkpt lat="46.75044" lon="-1.09738">
        <ele>54.9</ele>
        <time>2024-10-17T15:50:01.098Z</time>
      </trkpt>
      <trkpt lat="46.75074" lon="-1.09696">
        <ele>58.3</ele>
        <time>2024-10-17T15:50:19.947Z</time>
      </trkpt>
      <trkpt lat="46.75137" lon="-1.09621">
        <ele>61.3</ele>
        <time>2024-10-17T15:50:40.452Z</time>
      </trkpt>
      <trkpt lat="46.75155" lon="-1.09611">
        <ele>61.6</ele>
        <time>2024-10-17T15:50:44.277Z</time>
      </trkpt>
      <trkpt lat="46.75175" lon="-1.09605">
        <ele>62.5</ele>
        <time>2024-10-17T15:50:49.896Z</time>
      </trkpt>
      <trkpt lat="46.75198" lon="-1.09602">
        <ele>63.1</ele>
        <time>2024-10-17T15:50:55.030Z</time>
      </trkpt>
      <trkpt lat="46.75206" lon="-1.09596">
        <ele>63.4</ele>
        <time>2024-10-17T15:50:57.206Z</time>
      </trkpt>
      <trkpt lat="46.75214" lon="-1.09584">
        <ele>63.7</ele>
        <time>2024-10-17T15:50:59.761Z</time>
      </trkpt>
      <trkpt lat="46.75219" lon="-1.09571">
        <ele>63.4</ele>
        <time>2024-10-17T15:51:01.108Z</time>
      </trkpt>
      <trkpt lat="46.75224" lon="-1.09551">
        <ele>62.9</ele>
        <time>2024-10-17T15:51:02.960Z</time>
      </trkpt>
      <trkpt lat="46.75234" lon="-1.09544">
        <ele>63.4</ele>
        <time>2024-10-17T15:51:06.050Z</time>
      </trkpt>
      <trkpt lat="46.75289" lon="-1.09528">
        <ele>66.4</ele>
        <time>2024-10-17T15:51:23.438Z</time>
      </trkpt>
      <trkpt lat="46.75619" lon="-1.09442">
        <ele>70.6</ele>
        <time>2024-10-17T15:52:27.931Z</time>
      </trkpt>
      <trkpt lat="46.75655" lon="-1.0942">
        <ele>69.1</ele>
        <time>2024-10-17T15:52:32.735Z</time>
      </trkpt>
      <trkpt lat="46.75677" lon="-1.09398">
        <ele>68.3</ele>
        <time>2024-10-17T15:52:36.234Z</time>
      </trkpt>
      <trkpt lat="46.76089" lon="-1.08823">
        <ele>81.1</ele>
        <time>2024-10-17T15:54:38.104Z</time>
      </trkpt>
      <trkpt lat="46.76362" lon="-1.08585">
        <ele>77.9</ele>
        <time>2024-10-17T15:55:27.361Z</time>
      </trkpt>
      <trkpt lat="46.76391" lon="-1.08554">
        <ele>79.1</ele>
        <time>2024-10-17T15:55:36.059Z</time>
      </trkpt>
      <trkpt lat="46.767" lon="-1.08019">
        <ele>69.9</ele>
        <time>2024-10-17T15:56:44.686Z</time>
      </trkpt>
      <trkpt lat="46.76741" lon="-1.07955">
        <ele>66.6</ele>
        <time>2024-10-17T15:56:51.274Z</time>
      </trkpt>
      <trkpt lat="46.7699" lon="-1.07709">
        <ele>71.8</ele>
        <time>2024-10-17T15:57:52.074Z</time>
      </trkpt>
      <trkpt lat="46.77035" lon="-1.07667">
        <ele>72</ele>
        <time>2024-10-17T15:58:01.483Z</time>
      </trkpt>
      <trkpt lat="46.77098" lon="-1.07597">
        <ele>72.8</ele>
        <time>2024-10-17T15:58:16.341Z</time>
      </trkpt>
      <trkpt lat="46.77119" lon="-1.07567">
        <ele>72.6</ele>
        <time>2024-10-17T15:58:21.028Z</time>
      </trkpt>
      <trkpt lat="46.77155" lon="-1.07487">
        <ele>73.3</ele>
        <time>2024-10-17T15:58:33.404Z</time>
      </trkpt>
      <trkpt lat="46.77187" lon="-1.07407">
        <ele>75</ele>
        <time>2024-10-17T15:58:47.639Z</time>
      </trkpt>
      <trkpt lat="46.77244" lon="-1.07182">
        <ele>79.9</ele>
        <time>2024-10-17T15:59:25.791Z</time>
      </trkpt>
      <trkpt lat="46.77231" lon="-1.07179">
        <ele>79.7</ele>
        <time>2024-10-17T15:59:27.741Z</time>
      </trkpt>
      <trkpt lat="46.77224" lon="-1.07181">
        <ele>79.5</ele>
        <time>2024-10-17T15:59:28.691Z</time>
      </trkpt>
      <trkpt lat="46.77252" lon="-1.07148">
        <ele>80.7</ele>
        <time>2024-10-17T15:59:37.394Z</time>
      </trkpt>
      <trkpt lat="46.77262" lon="-1.07109">
        <ele>82</ele>
        <time>2024-10-17T15:59:45.391Z</time>
      </trkpt>
      <trkpt lat="46.77262" lon="-1.0711">
        <ele>82</ele>
        <time>2024-10-17T15:59:45.507Z</time>
      </trkpt>
      <trkpt lat="46.77267" lon="-1.07087">
        <ele>82</ele>
        <time>2024-10-17T15:59:48.316Z</time>
      </trkpt>
      <trkpt lat="46.77279" lon="-1.07056">
        <ele>83</ele>
        <time>2024-10-17T15:59:54.779Z</time>
      </trkpt>
      <trkpt lat="46.77408" lon="-1.06852">
        <ele>85</ele>
        <time>2024-10-17T16:00:30.618Z</time>
      </trkpt>
      <trkpt lat="46.77448" lon="-1.06796">
        <ele>85.9</ele>
        <time>2024-10-17T16:00:41.701Z</time>
      </trkpt>
      <trkpt lat="46.77677" lon="-1.06538">
        <ele>90.5</ele>
        <time>2024-10-17T16:01:39.338Z</time>
      </trkpt>
      <trkpt lat="46.77718" lon="-1.06475">
        <ele>90.9</ele>
        <time>2024-10-17T16:01:50.136Z</time>
      </trkpt>
      <trkpt lat="46.77714" lon="-1.06471">
        <ele>90.7</ele>
        <time>2024-10-17T16:01:50.720Z</time>
      </trkpt>
      <trkpt lat="46.77712" lon="-1.06465">
        <ele>90.4</ele>
        <time>2024-10-17T16:01:51.189Z</time>
      </trkpt>
      <trkpt lat="46.77712" lon="-1.06458">
        <ele>90.1</ele>
        <time>2024-10-17T16:01:51.691Z</time>
      </trkpt>
      <trkpt lat="46.77714" lon="-1.06452">
        <ele>90</ele>
        <time>2024-10-17T16:01:52.330Z</time>
      </trkpt>
      <trkpt lat="46.77718" lon="-1.06448">
        <ele>90</ele>
        <time>2024-10-17T16:01:53.154Z</time>
      </trkpt>
      <trkpt lat="46.77723" lon="-1.06448">
        <ele>90.2</ele>
        <time>2024-10-17T16:01:54.463Z</time>
      </trkpt>
      <trkpt lat="46.77727" lon="-1.06452">
        <ele>90.4</ele>
        <time>2024-10-17T16:01:55.752Z</time>
      </trkpt>
      <trkpt lat="46.77729" lon="-1.06458">
        <ele>90.7</ele>
        <time>2024-10-17T16:01:57.416Z</time>
      </trkpt>
      <trkpt lat="46.77771" lon="-1.06427">
        <ele>91.3</ele>
        <time>2024-10-17T16:02:06.490Z</time>
      </trkpt>
      <trkpt lat="46.77815" lon="-1.06378">
        <ele>91.8</ele>
        <time>2024-10-17T16:02:16.764Z</time>
      </trkpt>
      <trkpt lat="46.77852" lon="-1.06313">
        <ele>92.9</ele>
        <time>2024-10-17T16:02:28.685Z</time>
      </trkpt>
      <trkpt lat="46.77863" lon="-1.06297">
        <ele>92.8</ele>
        <time>2024-10-17T16:02:31.170Z</time>
      </trkpt>
      <trkpt lat="46.77882" lon="-1.06339">
        <ele>95.6</ele>
        <time>2024-10-17T16:02:46.681Z</time>
      </trkpt>
      <trkpt lat="46.77889" lon="-1.06347">
        <ele>96</ele>
        <time>2024-10-17T16:02:49.155Z</time>
      </trkpt>
      <trkpt lat="46.77913" lon="-1.06352">
        <ele>96</ele>
        <time>2024-10-17T16:02:53.275Z</time>
      </trkpt>
      <trkpt lat="46.77965" lon="-1.06346">
        <ele>97.9</ele>
        <time>2024-10-17T16:03:06.357Z</time>
      </trkpt>
      <trkpt lat="46.78002" lon="-1.06334">
        <ele>98.1</ele>
        <time>2024-10-17T16:03:13.136Z</time>
      </trkpt>
      <trkpt lat="46.78033" lon="-1.06359">
        <ele>99</ele>
        <time>2024-10-17T16:03:20.959Z</time>
      </trkpt>
      <trkpt lat="46.78049" lon="-1.06369">
        <ele>99.1</ele>
        <time>2024-10-17T16:03:24.086Z</time>
      </trkpt>
      <trkpt lat="46.7806" lon="-1.06358">
        <ele>99</ele>
        <time>2024-10-17T16:03:26.199Z</time>
      </trkpt>
      <trkpt lat="46.78082" lon="-1.0632">
        <ele>99</ele>
        <time>2024-10-17T16:03:31.990Z</time>
      </trkpt>
      <trkpt lat="46.78104" lon="-1.06278">
        <ele>99</ele>
        <time>2024-10-17T16:03:38.143Z</time>
      </trkpt>
      <trkpt lat="46.78141" lon="-1.06224">
        <ele>99.1</ele>
        <time>2024-10-17T16:03:47.197Z</time>
      </trkpt>
      <trkpt lat="46.78149" lon="-1.06204">
        <ele>98.2</ele>
        <time>2024-10-17T16:03:48.918Z</time>
      </trkpt>
      <trkpt lat="46.78149" lon="-1.06183">
        <ele>97.8</ele>
        <time>2024-10-17T16:03:50.837Z</time>
      </trkpt>
      <trkpt lat="46.78155" lon="-1.06181">
        <ele>98.1</ele>
        <time>2024-10-17T16:03:52.633Z</time>
      </trkpt>
      <trkpt lat="46.7829" lon="-1.0607">
        <ele>99</ele>
        <time>2024-10-17T16:04:20.486Z</time>
      </trkpt>
      <trkpt lat="46.78321" lon="-1.06044">
        <ele>99</ele>
        <time>2024-10-17T16:04:26.561Z</time>
      </trkpt>
      <trkpt lat="46.78315" lon="-1.06033">
        <ele>99</ele>
        <time>2024-10-17T16:04:28.197Z</time>
      </trkpt>
      <trkpt lat="46.78316" lon="-1.05965">
        <ele>99</ele>
        <time>2024-10-17T16:04:36.112Z</time>
      </trkpt>
      <trkpt lat="46.7832" lon="-1.05914">
        <ele>99</ele>
        <time>2024-10-17T16:04:42.086Z</time>
      </trkpt>
      <trkpt lat="46.78323" lon="-1.05769">
        <ele>99</ele>
        <time>2024-10-17T16:04:58.967Z</time>
      </trkpt>
      <trkpt lat="46.78332" lon="-1.05547">
        <ele>99</ele>
        <time>2024-10-17T16:05:24.846Z</time>
      </trkpt>
      <trkpt lat="46.78336" lon="-1.05541">
        <ele>99</ele>
        <time>2024-10-17T16:05:25.820Z</time>
      </trkpt>
      <trkpt lat="46.78337" lon="-1.05473">
        <ele>97.9</ele>
        <time>2024-10-17T16:05:32.249Z</time>
      </trkpt>
      <trkpt lat="46.78346" lon="-1.05324">
        <ele>95.8</ele>
        <time>2024-10-17T16:05:46.754Z</time>
      </trkpt>
      <trkpt lat="46.78355" lon="-1.0514">
        <ele>100</ele>
        <time>2024-10-17T16:06:17.270Z</time>
      </trkpt>
      <trkpt lat="46.78366" lon="-1.0508">
        <ele>101.3</ele>
        <time>2024-10-17T16:06:27.230Z</time>
      </trkpt>
      <trkpt lat="46.78414" lon="-1.04926">
        <ele>102.8</ele>
        <time>2024-10-17T16:06:49.617Z</time>
      </trkpt>
      <trkpt lat="46.78467" lon="-1.04826">
        <ele>105.4</ele>
        <time>2024-10-17T16:07:09.770Z</time>
      </trkpt>
      <trkpt lat="46.78525" lon="-1.04741">
        <ele>106.2</ele>
        <time>2024-10-17T16:07:25.134Z</time>
      </trkpt>
      <trkpt lat="46.78598" lon="-1.04675">
        <ele>107.6</ele>
        <time>2024-10-17T16:07:42.316Z</time>
      </trkpt>
      <trkpt lat="46.78648" lon="-1.04644">
        <ele>107.4</ele>
        <time>2024-10-17T16:07:51.233Z</time>
      </trkpt>
      <trkpt lat="46.789" lon="-1.04548">
        <ele>101.1</ele>
        <time>2024-10-17T16:08:27.015Z</time>
      </trkpt>
      <trkpt lat="46.7962" lon="-1.04292">
        <ele>96</ele>
        <time>2024-10-17T16:10:25.138Z</time>
      </trkpt>
      <trkpt lat="46.80128" lon="-1.04107">
        <ele>105</ele>
        <time>2024-10-17T16:12:10.895Z</time>
      </trkpt>
      <trkpt lat="46.80239" lon="-1.04076">
        <ele>107.6</ele>
        <time>2024-10-17T16:12:35.203Z</time>
      </trkpt>
      <trkpt lat="46.80406" lon="-1.03538">
        <ele>111</ele>
        <time>2024-10-17T16:13:49.805Z</time>
      </trkpt>
      <trkpt lat="46.80432" lon="-1.03468">
        <ele>111</ele>
        <time>2024-10-17T16:13:59.069Z</time>
      </trkpt>
      <trkpt lat="46.806" lon="-1.03118">
        <ele>110.9</ele>
        <time>2024-10-17T16:14:48.632Z</time>
      </trkpt>
      <trkpt lat="46.80849" lon="-1.02627">
        <ele>115</ele>
        <time>2024-10-17T16:16:06.891Z</time>
      </trkpt>
      <trkpt lat="46.8097" lon="-1.02286">
        <ele>117</ele>
        <time>2024-10-17T16:16:55.005Z</time>
      </trkpt>
      <trkpt lat="46.81088" lon="-1.02057">
        <ele>118.2</ele>
        <time>2024-10-17T16:17:30.383Z</time>
      </trkpt>
      <trkpt lat="46.81087" lon="-1.02057">
        <ele>118.2</ele>
        <time>2024-10-17T16:17:30.553Z</time>
      </trkpt>
      <trkpt lat="46.81113" lon="-1.02006">
        <ele>119</ele>
        <time>2024-10-17T16:17:39.457Z</time>
      </trkpt>
      <trkpt lat="46.81141" lon="-1.01981">
        <ele>119</ele>
        <time>2024-10-17T16:17:45.033Z</time>
      </trkpt>
      <trkpt lat="46.81187" lon="-1.01961">
        <ele>119.8</ele>
        <time>2024-10-17T16:17:54.674Z</time>
      </trkpt>
      <trkpt lat="46.8121" lon="-1.01958">
        <ele>120</ele>
        <time>2024-10-17T16:17:58.945Z</time>
      </trkpt>
      <trkpt lat="46.81209" lon="-1.01958">
        <ele>120</ele>
        <time>2024-10-17T16:17:59.115Z</time>
      </trkpt>
      <trkpt lat="46.81304" lon="-1.01944">
        <ele>119.9</ele>
        <time>2024-10-17T16:18:15.181Z</time>
      </trkpt>
      <trkpt lat="46.81348" lon="-1.01942">
        <ele>119</ele>
        <time>2024-10-17T16:18:21.418Z</time>
      </trkpt>
      <trkpt lat="46.81382" lon="-1.01949">
        <ele>118.2</ele>
        <time>2024-10-17T16:18:26.170Z</time>
      </trkpt>
      <trkpt lat="46.81398" lon="-1.01956">
        <ele>118</ele>
        <time>2024-10-17T16:18:28.714Z</time>
      </trkpt>
      <trkpt lat="46.8144" lon="-1.01973">
        <ele>118</ele>
        <time>2024-10-17T16:18:36.120Z</time>
      </trkpt>
      <trkpt lat="46.81473" lon="-1.01977">
        <ele>117.2</ele>
        <time>2024-10-17T16:18:40.671Z</time>
      </trkpt>
      <trkpt lat="46.81502" lon="-1.01967">
        <ele>117</ele>
        <time>2024-10-17T16:18:45.428Z</time>
      </trkpt>
      <trkpt lat="46.81536" lon="-1.01936">
        <ele>116.9</ele>
        <time>2024-10-17T16:18:52.080Z</time>
      </trkpt>
      <trkpt lat="46.81735" lon="-1.01722">
        <ele>116</ele>
        <time>2024-10-17T16:19:32.655Z</time>
      </trkpt>
      <trkpt lat="46.81803" lon="-1.01663">
        <ele>116.1</ele>
        <time>2024-10-17T16:19:46.258Z</time>
      </trkpt>
      <trkpt lat="46.82118" lon="-1.01441">
        <ele>120.3</ele>
        <time>2024-10-17T16:20:53.182Z</time>
      </trkpt>
      <trkpt lat="46.82206" lon="-1.01384">
        <ele>121.1</ele>
        <time>2024-10-17T16:21:10.923Z</time>
      </trkpt>
      <trkpt lat="46.82631" lon="-1.01197">
        <ele>120.1</ele>
        <time>2024-10-17T16:22:24.762Z</time>
      </trkpt>
      <trkpt lat="46.82659" lon="-1.0117">
        <ele>119.1</ele>
        <time>2024-10-17T16:22:29.170Z</time>
      </trkpt>
      <trkpt lat="46.82778" lon="-1.0103">
        <ele>119</ele>
        <time>2024-10-17T16:22:54.969Z</time>
      </trkpt>
      <trkpt lat="46.82778" lon="-1.01031">
        <ele>119</ele>
        <time>2024-10-17T16:22:55.086Z</time>
      </trkpt>
      <trkpt lat="46.82866" lon="-1.0092">
        <ele>121.9</ele>
        <time>2024-10-17T16:23:20.631Z</time>
      </trkpt>
      <trkpt lat="46.82895" lon="-1.00871">
        <ele>122.2</ele>
        <time>2024-10-17T16:23:28.677Z</time>
      </trkpt>
      <trkpt lat="46.8297" lon="-1.00721">
        <ele>121.9</ele>
        <time>2024-10-17T16:23:49.802Z</time>
      </trkpt>
      <trkpt lat="46.83004" lon="-1.00668">
        <ele>122</ele>
        <time>2024-10-17T16:23:58.413Z</time>
      </trkpt>
      <trkpt lat="46.83025" lon="-1.00644">
        <ele>121.9</ele>
        <time>2024-10-17T16:24:02.787Z</time>
      </trkpt>
      <trkpt lat="46.83144" lon="-1.00548">
        <ele>121.8</ele>
        <time>2024-10-17T16:24:25.724Z</time>
      </trkpt>
      <trkpt lat="46.83175" lon="-1.00527">
        <ele>123</ele>
        <time>2024-10-17T16:24:34.162Z</time>
      </trkpt>
      <trkpt lat="46.83256" lon="-1.00493">
        <ele>125</ele>
        <time>2024-10-17T16:24:52.435Z</time>
      </trkpt>
      <trkpt lat="46.83296" lon="-1.00464">
        <ele>125</ele>
        <time>2024-10-17T16:25:00.023Z</time>
      </trkpt>
      <trkpt lat="46.83304" lon="-1.00453">
        <ele>125</ele>
        <time>2024-10-17T16:25:01.889Z</time>
      </trkpt>
      <trkpt lat="46.83312" lon="-1.00429">
        <ele>125.4</ele>
        <time>2024-10-17T16:25:05.770Z</time>
      </trkpt>
      <trkpt lat="46.83315" lon="-1.00398">
        <ele>125.9</ele>
        <time>2024-10-17T16:25:10.395Z</time>
      </trkpt>
      <trkpt lat="46.83313" lon="-1.00375">
        <ele>125.5</ele>
        <time>2024-10-17T16:25:12.556Z</time>
      </trkpt>
      <trkpt lat="46.8351" lon="-1.00397">
        <ele>126.3</ele>
        <time>2024-10-17T16:25:47.467Z</time>
      </trkpt>
      <trkpt lat="46.83505" lon="-1.00388">
        <ele>126.2</ele>
        <time>2024-10-17T16:25:48.669Z</time>
      </trkpt>
      <trkpt lat="46.83516" lon="-1.00386">
        <ele>126.6</ele>
        <time>2024-10-17T16:25:51.438Z</time>
      </trkpt>
      <trkpt lat="46.83525" lon="-1.0039">
        <ele>126.9</ele>
        <time>2024-10-17T16:25:53.675Z</time>
      </trkpt>
      <trkpt lat="46.8356" lon="-1.0039">
        <ele>126</ele>
        <time>2024-10-17T16:25:58.425Z</time>
      </trkpt>
      <trkpt lat="46.83598" lon="-1.00395">
        <ele>125.5</ele>
        <time>2024-10-17T16:26:04.179Z</time>
      </trkpt>
      <trkpt lat="46.83613" lon="-1.00405">
        <ele>125</ele>
        <time>2024-10-17T16:26:06.336Z</time>
      </trkpt>
      <trkpt lat="46.83677" lon="-1.00402">
        <ele>124.5</ele>
        <time>2024-10-17T16:26:16.458Z</time>
      </trkpt>
      <trkpt lat="46.83857" lon="-1.00416">
        <ele>124.8</ele>
        <time>2024-10-17T16:26:47.582Z</time>
      </trkpt>
      <trkpt lat="46.83871" lon="-1.0041">
        <ele>124.5</ele>
        <time>2024-10-17T16:26:49.647Z</time>
      </trkpt>
      <trkpt lat="46.83876" lon="-1.00414">
        <ele>124.4</ele>
        <time>2024-10-17T16:26:50.474Z</time>
      </trkpt>
      <trkpt lat="46.83876" lon="-1.00437">
        <ele>124.1</ele>
        <time>2024-10-17T16:26:52.729Z</time>
      </trkpt>
      <trkpt lat="46.84381" lon="-1.00475">
        <ele>114.4</ele>
        <time>2024-10-17T16:28:05.130Z</time>
      </trkpt>
      <trkpt lat="46.84422" lon="-1.00477">
        <ele>114</ele>
        <time>2024-10-17T16:28:11.503Z</time>
      </trkpt>
      <trkpt lat="46.84444" lon="-1.00486">
        <ele>113.5</ele>
        <time>2024-10-17T16:28:14.701Z</time>
      </trkpt>
      <trkpt lat="46.84482" lon="-1.00513">
        <ele>113</ele>
        <time>2024-10-17T16:28:21.144Z</time>
      </trkpt>
      <trkpt lat="46.84486" lon="-1.00515">
        <ele>113</ele>
        <time>2024-10-17T16:28:21.863Z</time>
      </trkpt>
      <trkpt lat="46.84497" lon="-1.00515">
        <ele>113</ele>
        <time>2024-10-17T16:28:23.732Z</time>
      </trkpt>
      <trkpt lat="46.84503" lon="-1.00511">
        <ele>112.9</ele>
        <time>2024-10-17T16:28:24.709Z</time>
      </trkpt>
      <trkpt lat="46.84505" lon="-1.00498">
        <ele>112.8</ele>
        <time>2024-10-17T16:28:26.109Z</time>
      </trkpt>
      <trkpt lat="46.84523" lon="-1.00485">
        <ele>112.6</ele>
        <time>2024-10-17T16:28:29.222Z</time>
      </trkpt>
      <trkpt lat="46.84546" lon="-1.00484">
        <ele>112.3</ele>
        <time>2024-10-17T16:28:32.695Z</time>
      </trkpt>
      <trkpt lat="46.84623" lon="-1.00474">
        <ele>113.5</ele>
        <time>2024-10-17T16:28:48.037Z</time>
      </trkpt>
      <trkpt lat="46.84695" lon="-1.00451">
        <ele>115.2</ele>
        <time>2024-10-17T16:29:03.900Z</time>
      </trkpt>
      <trkpt lat="46.84767" lon="-1.00426">
        <ele>116</ele>
        <time>2024-10-17T16:29:17.889Z</time>
      </trkpt>
      <trkpt lat="46.8478" lon="-1.00418">
        <ele>116</ele>
        <time>2024-10-17T16:29:20.286Z</time>
      </trkpt>
      <trkpt lat="46.84786" lon="-1.00408">
        <ele>116</ele>
        <time>2024-10-17T16:29:21.832Z</time>
      </trkpt>
      <trkpt lat="46.84789" lon="-1.00396">
        <ele>116</ele>
        <time>2024-10-17T16:29:23.317Z</time>
      </trkpt>
      <trkpt lat="46.84833" lon="-1.00383">
        <ele>116</ele>
        <time>2024-10-17T16:29:30.946Z</time>
      </trkpt>
      <trkpt lat="46.84867" lon="-1.00377">
        <ele>115.3</ele>
        <time>2024-10-17T16:29:35.798Z</time>
      </trkpt>
      <trkpt lat="46.84906" lon="-1.00376">
        <ele>115</ele>
        <time>2024-10-17T16:29:41.970Z</time>
      </trkpt>
      <trkpt lat="46.84953" lon="-1.00379">
        <ele>114.4</ele>
        <time>2024-10-17T16:29:49.087Z</time>
      </trkpt>
      <trkpt lat="46.84991" lon="-1.00386">
        <ele>113.4</ele>
        <time>2024-10-17T16:29:54.269Z</time>
      </trkpt>
      <trkpt lat="46.85028" lon="-1.00398">
        <ele>112.3</ele>
        <time>2024-10-17T16:29:59.279Z</time>
      </trkpt>
      <trkpt lat="46.85054" lon="-1.0041">
        <ele>111.1</ele>
        <time>2024-10-17T16:30:02.503Z</time>
      </trkpt>
      <trkpt lat="46.85104" lon="-1.00442">
        <ele>110.3</ele>
        <time>2024-10-17T16:30:10.624Z</time>
      </trkpt>
      <trkpt lat="46.85281" lon="-1.00571">
        <ele>109</ele>
        <time>2024-10-17T16:30:42.238Z</time>
      </trkpt>
      <trkpt lat="46.85347" lon="-1.00588">
        <ele>108.1</ele>
        <time>2024-10-17T16:30:52.317Z</time>
      </trkpt>
      <trkpt lat="46.85442" lon="-1.00633">
        <ele>106.8</ele>
        <time>2024-10-17T16:31:07.388Z</time>
      </trkpt>
      <trkpt lat="46.85483" lon="-1.00655">
        <ele>107</ele>
        <time>2024-10-17T16:31:15.145Z</time>
      </trkpt>
      <trkpt lat="46.85562" lon="-1.00711">
        <ele>108.7</ele>
        <time>2024-10-17T16:31:33.296Z</time>
      </trkpt>
      <trkpt lat="46.85689" lon="-1.0083">
        <ele>111</ele>
        <time>2024-10-17T16:32:03.147Z</time>
      </trkpt>
      <trkpt lat="46.85801" lon="-1.00895">
        <ele>112</ele>
        <time>2024-10-17T16:32:25.353Z</time>
      </trkpt>
      <trkpt lat="46.8584" lon="-1.00918">
        <ele>112</ele>
        <time>2024-10-17T16:32:32.500Z</time>
      </trkpt>
      <trkpt lat="46.85843" lon="-1.00911">
        <ele>112</ele>
        <time>2024-10-17T16:32:33.460Z</time>
      </trkpt>
      <trkpt lat="46.85851" lon="-1.00907">
        <ele>112</ele>
        <time>2024-10-17T16:32:34.896Z</time>
      </trkpt>
      <trkpt lat="46.85873" lon="-1.00878">
        <ele>112</ele>
        <time>2024-10-17T16:32:39.930Z</time>
      </trkpt>
      <trkpt lat="46.85979" lon="-1.00622">
        <ele>112.5</ele>
        <time>2024-10-17T16:33:15.531Z</time>
      </trkpt>
      <trkpt lat="46.86007" lon="-1.00541">
        <ele>113.8</ele>
        <time>2024-10-17T16:33:28.583Z</time>
      </trkpt>
      <trkpt lat="46.86027" lon="-1.0047">
        <ele>115</ele>
        <time>2024-10-17T16:33:39.858Z</time>
      </trkpt>
      <trkpt lat="46.86043" lon="-1.00404">
        <ele>116</ele>
        <time>2024-10-17T16:33:49.922Z</time>
      </trkpt>
      <trkpt lat="46.86129" lon="-1.0046">
        <ele>115</ele>
        <time>2024-10-17T16:34:04.432Z</time>
      </trkpt>
      <trkpt lat="46.8617" lon="-1.00489">
        <ele>115</ele>
        <time>2024-10-17T16:34:12.172Z</time>
      </trkpt>
      <trkpt lat="46.86189" lon="-1.00512">
        <ele>114.9</ele>
        <time>2024-10-17T16:34:16.207Z</time>
      </trkpt>
      <trkpt lat="46.86228" lon="-1.00664">
        <ele>116</ele>
        <time>2024-10-17T16:34:36.999Z</time>
      </trkpt>
      <trkpt lat="46.86234" lon="-1.00681">
        <ele>116.2</ele>
        <time>2024-10-17T16:34:39.589Z</time>
      </trkpt>
      <trkpt lat="46.8627" lon="-1.00662">
        <ele>117.3</ele>
        <time>2024-10-17T16:34:48.367Z</time>
      </trkpt>
      <trkpt lat="46.86315" lon="-1.00632">
        <ele>117.8</ele>
        <time>2024-10-17T16:34:57.649Z</time>
      </trkpt>
      <trkpt lat="46.86335" lon="-1.00614">
        <ele>118.2</ele>
        <time>2024-10-17T16:35:02.385Z</time>
      </trkpt>
      <trkpt lat="46.86381" lon="-1.00562">
        <ele>119.2</ele>
        <time>2024-10-17T16:35:14.130Z</time>
      </trkpt>
      <trkpt lat="46.86392" lon="-1.00554">
        <ele>119</ele>
        <time>2024-10-17T16:35:15.933Z</time>
      </trkpt>
      <trkpt lat="46.86462" lon="-1.00555">
        <ele>117.4</ele>
        <time>2024-10-17T16:35:25.656Z</time>
      </trkpt>
      <trkpt lat="46.86488" lon="-1.00561">
        <ele>117.4</ele>
        <time>2024-10-17T16:35:30.129Z</time>
      </trkpt>
      <trkpt lat="46.86523" lon="-1.00577">
        <ele>114.8</ele>
        <time>2024-10-17T16:35:33.868Z</time>
      </trkpt>
      <trkpt lat="46.86556" lon="-1.00597">
        <ele>114.5</ele>
        <time>2024-10-17T16:35:39.484Z</time>
      </trkpt>
      <trkpt lat="46.86576" lon="-1.00611">
        <ele>113.5</ele>
        <time>2024-10-17T16:35:42.086Z</time>
      </trkpt>
    </trkseg>
  </trk>
</gpx>